Observation data for Segovia 7SSW on 08/14/2020      Previous  Date  Next       Current Mesonet Observations  Soil Data  Daily Summary Page  Observations in Plain Language
KSE2 140500Z 15005KT 27/15 A3002 RMK A01 T02710145  RH  046%=      5-min Rain = 0
KSE2 140501Z 15005KT 27/15 A3002 RMK A01 T02710146  RH  046%=      5-min Rain = 0
KSE2 140502Z 15006KT 27/15 A3002 RMK A01 T02700145  RH  046%=      5-min Rain = 0
KSE2 140503Z 15006KT 27/15 A3002 RMK A01 T02710145  RH  046%=      5-min Rain = 0
KSE2 140504Z 16006KT 27/15 A3002 RMK A01 T02710145  RH  046%=      5-min Rain = 0
KSE2 140505Z 16006KT 27/15 A3002 RMK A01 T02710146  RH  046%=      5-min Rain = 0
KSE2 140506Z 16006KT 27/15 A3002 RMK A01 T02720146  RH  046%=      5-min Rain = 0
KSE2 140507Z 16006KT 27/15 A3002 RMK A01 T02720146  RH  046%=      5-min Rain = 0
KSE2 140508Z 16005KT 27/15 A3002 RMK A01 T02720145  RH  046%=      5-min Rain = 0
KSE2 140509Z 16005KT 27/15 A3001 RMK A01 T02720145  RH  046%=      5-min Rain = 0
KSE2 140510Z 17006KT 27/15 A3001 RMK A01 T02720146  RH  046%=      5-min Rain = 0
KSE2 140511Z 16005KT 27/15 A3002 RMK A01 T02720146  RH  046%=      5-min Rain = 0
KSE2 140512Z 16006KT 27/15 A3002 RMK A01 T02720146  RH  046%=      5-min Rain = 0
KSE2 140513Z 16006KT 27/15 A3002 RMK A01 T02720146  RH  046%=      5-min Rain = 0
KSE2 140514Z 16007KT 27/15 A3002 RMK A01 T02720146  RH  046%=      5-min Rain = 0
KSE2 140515Z 16005KT 27/15 A3002 RMK A01 T02710146  RH  046%=      5-min Rain = 0
KSE2 140516Z 16005KT 27/15 A3002 RMK A01 T02710146  RH  046%=      5-min Rain = 0
KSE2 140517Z 17005KT 27/15 A3002 RMK A01 T02720146  RH  046%=      5-min Rain = 0
KSE2 140518Z 17007KT 27/15 A3002 RMK A01 T02710146  RH  046%=      5-min Rain = 0
KSE2 140519Z 17006KT 27/15 A3002 RMK A01 T02720146  RH  046%=      5-min Rain = 0
KSE2 140520Z 17005KT 27/15 A3002 RMK A01 T02710146  RH  046%=      5-min Rain = 0
KSE2 140521Z 17005KT 27/15 A3002 RMK A01 T02710146  RH  046%=      5-min Rain = 0
KSE2 140522Z 17006KT 27/15 A3002 RMK A01 T02710147  RH  047%=      5-min Rain = 0
KSE2 140523Z 17006KT 27/15 A3002 RMK A01 T02710147  RH  047%=      5-min Rain = 0
KSE2 140524Z 17005KT 27/15 A3002 RMK A01 T02700146  RH  047%=      5-min Rain = 0
KSE2 140525Z 17005KT 27/15 A3002 RMK A01 T02700147  RH  047%=      5-min Rain = 0
KSE2 140526Z 17007KT 27/15 A3002 RMK A01 T02700147  RH  047%=      5-min Rain = 0
KSE2 140527Z 17007KT 27/15 A3002 RMK A01 T02700147  RH  047%=      5-min Rain = 0
KSE2 140528Z 17006KT 27/15 A3002 RMK A01 T02700147  RH  047%=      5-min Rain = 0
KSE2 140529Z 18006KT 27/15 A3002 RMK A01 T02700147  RH  047%=      5-min Rain = 0
KSE2 140530Z 17006G11KT 27/15 A3002 RMK A01 T02700147  RH  047%=      5-min Rain = 0
KSE2 140531Z 17007KT 27/15 A3002 RMK A01 T02700147  RH  047%=      5-min Rain = 0
KSE2 140532Z 18007KT 27/15 A3002 RMK A01 T02700148  RH  047%=      5-min Rain = 0
KSE2 140533Z 18006KT 27/15 A3002 RMK A01 T02700147  RH  047%=      5-min Rain = 0
KSE2 140534Z 18006KT 27/15 A3002 RMK A01 T02700148  RH  047%=      5-min Rain = 0
KSE2 140535Z 17006KT 27/15 A3002 RMK A01 T02700148  RH  047%=      5-min Rain = 0
KSE2 140536Z 17006KT 27/15 A3002 RMK A01 T02700148  RH  047%=      5-min Rain = 0
KSE2 140537Z 17005KT 27/15 A3002 RMK A01 T02690148  RH  047%=      5-min Rain = 0
KSE2 140538Z 17006KT 27/15 A3002 RMK A01 T02690149  RH  048%=      5-min Rain = 0
KSE2 140539Z 17008KT 27/15 A3002 RMK A01 T02690149  RH  048%=      5-min Rain = 0
KSE2 140540Z 16007KT 27/15 A3002 RMK A01 T02690149  RH  048%=      5-min Rain = 0
KSE2 140541Z 17007KT 27/15 A3002 RMK A01 T02690150  RH  048%=      5-min Rain = 0
KSE2 140542Z 16008KT 27/15 A3002 RMK A01 T02700150  RH  048%=      5-min Rain = 0
KSE2 140543Z 16007KT 27/15 A3002 RMK A01 T02700150  RH  048%=      5-min Rain = 0
KSE2 140544Z 16007KT 27/15 A3002 RMK A01 T02700150  RH  048%=      5-min Rain = 0
KSE2 140545Z 17007KT 27/15 A3002 RMK A01 T02700150  RH  048%=      5-min Rain = 0
KSE2 140546Z 16008KT 27/15 A3002 RMK A01 T02700150  RH  048%=      5-min Rain = 0
KSE2 140547Z 16009KT 27/15 A3002 RMK A01 T02700151  RH  048%=      5-min Rain = 0
KSE2 140548Z 17009KT 27/15 A3002 RMK A01 T02710151  RH  048%=      5-min Rain = 0
KSE2 140549Z 16009KT 27/15 A3002 RMK A01 T02710151  RH  048%=      5-min Rain = 0
KSE2 140550Z 16007KT 27/15 A3002 RMK A01 T02710151  RH  048%=      5-min Rain = 0
KSE2 140551Z 16008KT 27/15 A3002 RMK A01 T02710152  RH  048%=      5-min Rain = 0
KSE2 140552Z 16007KT 27/15 A3002 RMK A01 T02710151  RH  048%=      5-min Rain = 0
KSE2 140553Z 16008KT 27/15 A3002 RMK A01 T02710152  RH  048%=      5-min Rain = 0
KSE2 140554Z 17006KT 27/15 A3002 RMK A01 T02710151  RH  048%=      5-min Rain = 0
KSE2 140555Z 17008KT 27/15 A3002 RMK A01 T02700151  RH  048%=      5-min Rain = 0
KSE2 140556Z 17007KT 27/15 A3002 RMK A01 T02700152  RH  048%=      5-min Rain = 0
KSE2 140557Z 16007KT 27/15 A3002 RMK A01 T02700152  RH  048%=      5-min Rain = 0
KSE2 140558Z 17006KT 27/15 A3002 RMK A01 T02700152  RH  048%=      5-min Rain = 0
KSE2 140559Z 16007KT 27/15 A3002 RMK A01 T02700152  RH  048%=      5-min Rain = 0
KSE2 140600Z 17006KT 27/15 A3002 RMK A01 T02690152  RH  049%=      5-min Rain = 0
KSE2 140601Z 17007KT 27/15 A3002 RMK A01 T02700153  RH  049%=      5-min Rain = 0
KSE2 140602Z 17006KT 27/15 A3002 RMK A01 T02690152  RH  049%=      5-min Rain = 0
KSE2 140603Z 17007KT 27/15 A3002 RMK A01 T02690152  RH  049%=      5-min Rain = 0
KSE2 140604Z 16006KT 27/15 A3002 RMK A01 T02690153  RH  049%=      5-min Rain = 0
KSE2 140605Z 17006KT 27/15 A3002 RMK A01 T02690153  RH  049%=      5-min Rain = 0
KSE2 140606Z 16006KT 27/15 A3002 RMK A01 T02680153  RH  049%=      5-min Rain = 0
KSE2 140607Z 17006KT 27/15 A3002 RMK A01 T02680153  RH  049%=      5-min Rain = 0
KSE2 140608Z 16006KT 27/15 A3002 RMK A01 T02680153  RH  049%=      5-min Rain = 0
KSE2 140609Z 17007KT 27/15 A3002 RMK A01 T02670153  RH  049%=      5-min Rain = 0
KSE2 140610Z 16008KT 27/15 A3002 RMK A01 T02670153  RH  049%=      5-min Rain = 0
KSE2 140611Z 17007KT 27/15 A3002 RMK A01 T02680153  RH  049%=      5-min Rain = 0
KSE2 140612Z 16006KT 27/15 A3002 RMK A01 T02680154  RH  049%=      5-min Rain = 0
KSE2 140613Z 17007KT 27/15 A3002 RMK A01 T02680154  RH  049%=      5-min Rain = 0
KSE2 140614Z 16008KT 27/15 A3002 RMK A01 T02680154  RH  049%=      5-min Rain = 0
KSE2 140615Z 17007KT 27/15 A3002 RMK A01 T02680154  RH  049%=      5-min Rain = 0
KSE2 140616Z 16007KT 27/15 A3002 RMK A01 T02680154  RH  050%=      5-min Rain = 0
KSE2 140617Z 16005KT 27/15 A3002 RMK A01 T02680154  RH  050%=      5-min Rain = 0
KSE2 140618Z 17006KT 27/16 A3002 RMK A01 T02680155  RH  050%=      5-min Rain = 0
KSE2 140619Z 17008KT 27/16 A3002 RMK A01 T02670155  RH  050%=      5-min Rain = 0
KSE2 140620Z 17006KT 27/16 A3002 RMK A01 T02670155  RH  050%=      5-min Rain = 0
KSE2 140621Z 17005KT 27/16 A3002 RMK A01 T02670155  RH  050%=      5-min Rain = 0
KSE2 140622Z 17006KT 27/16 A3002 RMK A01 T02670155  RH  050%=      5-min Rain = 0
KSE2 140623Z 17007KT 27/16 A3002 RMK A01 T02670155  RH  050%=      5-min Rain = 0
KSE2 140624Z 17006KT 27/16 A3002 RMK A01 T02670156  RH  050%=      5-min Rain = 0
KSE2 140625Z 18007KT 27/16 A3002 RMK A01 T02670155  RH  050%=      5-min Rain = 0
KSE2 140626Z 17005KT 27/16 A3002 RMK A01 T02670156  RH  050%=      5-min Rain = 0
KSE2 140627Z 17006KT 27/16 A3002 RMK A01 T02670156  RH  051%=      5-min Rain = 0
KSE2 140628Z 17006KT 27/16 A3002 RMK A01 T02660156  RH  051%=      5-min Rain = 0
KSE2 140629Z 17005KT 27/16 A3002 RMK A01 T02660156  RH  051%=      5-min Rain = 0
KSE2 140630Z 17006KT 27/16 A3002 RMK A01 T02660156  RH  051%=      5-min Rain = 0
KSE2 140631Z 17006KT 27/16 A3002 RMK A01 T02660156  RH  051%=      5-min Rain = 0
KSE2 140632Z 16007KT 27/16 A3002 RMK A01 T02660156  RH  051%=      5-min Rain = 0
KSE2 140633Z 17007KT 27/16 A3002 RMK A01 T02660157  RH  051%=      5-min Rain = 0
KSE2 140634Z 17006KT 27/16 A3002 RMK A01 T02650157  RH  051%=      5-min Rain = 0
KSE2 140635Z 17006KT 27/16 A3002 RMK A01 T02660157  RH  051%=      5-min Rain = 0
KSE2 140636Z 17007KT 27/16 A3002 RMK A01 T02660157  RH  051%=      5-min Rain = 0
KSE2 140637Z 17007KT 27/16 A3002 RMK A01 T02660157  RH  051%=      5-min Rain = 0
KSE2 140638Z 16007KT 27/16 A3002 RMK A01 T02660157  RH  051%=      5-min Rain = 0
KSE2 140639Z 16007KT 27/16 A3002 RMK A01 T02650157  RH  051%=      5-min Rain = 0
KSE2 140640Z 17008KT 27/16 A3002 RMK A01 T02650157  RH  052%=      5-min Rain = 0
KSE2 140641Z 16007KT 27/16 A3002 RMK A01 T02650157  RH  052%=      5-min Rain = 0
KSE2 140642Z 17007KT 27/16 A3002 RMK A01 T02650157  RH  052%=      5-min Rain = 0
KSE2 140643Z 16008KT 27/16 A3002 RMK A01 T02650158  RH  052%=      5-min Rain = 0
KSE2 140644Z 16008KT 27/16 A3002 RMK A01 T02650158  RH  052%=      5-min Rain = 0
KSE2 140645Z 16007KT 27/16 A3002 RMK A01 T02650157  RH  052%=      5-min Rain = 0
KSE2 140646Z 17007KT 27/16 A3002 RMK A01 T02650158  RH  052%=      5-min Rain = 0
KSE2 140647Z 17008KT 27/16 A3002 RMK A01 T02650158  RH  052%=      5-min Rain = 0
KSE2 140648Z 16007KT 27/16 A3002 RMK A01 T02650158  RH  052%=      5-min Rain = 0
KSE2 140649Z 16007KT 26/16 A3002 RMK A01 T02640158  RH  052%=      5-min Rain = 0
KSE2 140650Z 17007KT 26/16 A3002 RMK A01 T02630158  RH  052%=      5-min Rain = 0
KSE2 140651Z 17008KT 26/16 A3002 RMK A01 T02630158  RH  052%=      5-min Rain = 0
KSE2 140652Z 16007KT 26/16 A3002 RMK A01 T02630158  RH  052%=      5-min Rain = 0
KSE2 140653Z 16007KT 26/16 A3002 RMK A01 T02630158  RH  052%=      5-min Rain = 0
KSE2 140654Z 16009KT 26/16 A3002 RMK A01 T02630159  RH  053%=      5-min Rain = 0
KSE2 140655Z 16007KT 26/16 A3002 RMK A01 T02630159  RH  053%=      5-min Rain = 0
KSE2 140656Z 16008KT 26/16 A3002 RMK A01 T02630159  RH  053%=      5-min Rain = 0
KSE2 140657Z 16007KT 26/16 A3002 RMK A01 T02640159  RH  053%=      5-min Rain = 0
KSE2 140658Z 16007KT 26/16 A3002 RMK A01 T02630159  RH  053%=      5-min Rain = 0
KSE2 140659Z 16009KT 26/16 A3002 RMK A01 T02630159  RH  053%=      5-min Rain = 0
KSE2 140700Z 16008KT 26/16 A3002 RMK A01 T02630160  RH  053%=      5-min Rain = 0
KSE2 140701Z 16007KT 26/16 A3002 RMK A01 T02630160  RH  053%=      5-min Rain = 0
KSE2 140702Z 16008KT 26/16 A3002 RMK A01 T02630160  RH  053%=      5-min Rain = 0
KSE2 140703Z 17006KT 26/16 A3002 RMK A01 T02630160  RH  053%=      5-min Rain = 0
KSE2 140704Z 16006KT 26/16 A3002 RMK A01 T02630161  RH  053%=      5-min Rain = 0
KSE2 140705Z 17007KT 26/16 A3002 RMK A01 T02620160  RH  053%=      5-min Rain = 0
KSE2 140706Z 16008KT 26/16 A3002 RMK A01 T02630161  RH  053%=      5-min Rain = 0
KSE2 140707Z 16007KT 26/16 A3002 RMK A01 T02630161  RH  054%=      5-min Rain = 0
KSE2 140708Z 16007KT 26/16 A3002 RMK A01 T02620161  RH  054%=      5-min Rain = 0
KSE2 140709Z 16008KT 26/16 A3002 RMK A01 T02630161  RH  054%=      5-min Rain = 0
KSE2 140710Z 16007KT 26/16 A3002 RMK A01 T02630161  RH  054%=      5-min Rain = 0
KSE2 140711Z 16007KT 26/16 A3002 RMK A01 T02620161  RH  054%=      5-min Rain = 0
KSE2 140712Z 16007KT 26/16 A3002 RMK A01 T02620161  RH  054%=      5-min Rain = 0
KSE2 140713Z 16007KT 26/16 A3002 RMK A01 T02610162  RH  054%=      5-min Rain = 0
KSE2 140714Z 16007KT 26/16 A3002 RMK A01 T02610162  RH  054%=      5-min Rain = 0
KSE2 140715Z 16007KT 26/16 A3002 RMK A01 T02610162  RH  054%=      5-min Rain = 0
KSE2 140716Z 16007KT 26/16 A3003 RMK A01 T02610162  RH  054%=      5-min Rain = 0
KSE2 140717Z 16006KT 26/16 A3003 RMK A01 T02600162  RH  054%=      5-min Rain = 0
KSE2 140718Z 16008KT 26/16 A3003 RMK A01 T02600162  RH  055%=      5-min Rain = 0
KSE2 140719Z 15006KT 26/16 A3003 RMK A01 T02600162  RH  055%=      5-min Rain = 0
KSE2 140720Z 16007KT 26/16 A3003 RMK A01 T02600162  RH  055%=      5-min Rain = 0
KSE2 140721Z 16006KT 26/16 A3003 RMK A01 T02600163  RH  055%=      5-min Rain = 0
KSE2 140722Z 17007KT 26/16 A3003 RMK A01 T02600163  RH  055%=      5-min Rain = 0
KSE2 140723Z 17007KT 26/16 A3003 RMK A01 T02600163  RH  055%=      5-min Rain = 0
KSE2 140724Z 17007KT 26/16 A3003 RMK A01 T02600163  RH  055%=      5-min Rain = 0
KSE2 140725Z 17005KT 26/16 A3003 RMK A01 T02600163  RH  055%=      5-min Rain = 0
KSE2 140726Z 17006KT 26/16 A3003 RMK A01 T02590163  RH  055%=      5-min Rain = 0
KSE2 140727Z 17007KT 26/16 A3003 RMK A01 T02590163  RH  056%=      5-min Rain = 0
KSE2 140728Z 17006KT 26/16 A3003 RMK A01 T02590163  RH  056%=      5-min Rain = 0
KSE2 140729Z 16006KT 26/16 A3002 RMK A01 T02590164  RH  056%=      5-min Rain = 0
KSE2 140730Z 17006KT 26/16 A3002 RMK A01 T02590164  RH  056%=      5-min Rain = 0
KSE2 140731Z 16006KT 26/16 A3002 RMK A01 T02590164  RH  056%=      5-min Rain = 0
KSE2 140732Z 16006KT 26/16 A3002 RMK A01 T02590164  RH  056%=      5-min Rain = 0
KSE2 140733Z 16006KT 26/16 A3002 RMK A01 T02580164  RH  056%=      5-min Rain = 0
KSE2 140734Z 16006KT 26/16 A3002 RMK A01 T02580164  RH  056%=      5-min Rain = 0
KSE2 140735Z 16007KT 26/17 A3002 RMK A01 T02570165  RH  056%=      5-min Rain = 0
KSE2 140736Z 17007KT 26/17 A3002 RMK A01 T02570165  RH  057%=      5-min Rain = 0
KSE2 140737Z 16008KT 26/17 A3002 RMK A01 T02570165  RH  057%=      5-min Rain = 0
KSE2 140738Z 16008KT 26/17 A3002 RMK A01 T02570165  RH  057%=      5-min Rain = 0
KSE2 140739Z 17008KT 26/17 A3002 RMK A01 T02580166  RH  057%=      5-min Rain = 0
KSE2 140740Z 16007KT 26/17 A3002 RMK A01 T02580166  RH  057%=      5-min Rain = 0
KSE2 140741Z 17007KT 26/17 A3002 RMK A01 T02580166  RH  057%=      5-min Rain = 0
KSE2 140742Z 16008KT 26/17 A3002 RMK A01 T02580166  RH  057%=      5-min Rain = 0
KSE2 140743Z 16007KT 26/17 A3002 RMK A01 T02580166  RH  057%=      5-min Rain = 0
KSE2 140744Z 16007KT 26/17 A3002 RMK A01 T02580167  RH  057%=      5-min Rain = 0
KSE2 140745Z 17007KT 26/17 A3002 RMK A01 T02570167  RH  057%=      5-min Rain = 0
KSE2 140746Z 16008KT 26/17 A3002 RMK A01 T02580167  RH  057%=      5-min Rain = 0
KSE2 140747Z 17007KT 26/17 A3002 RMK A01 T02570167  RH  057%=      5-min Rain = 0
KSE2 140748Z 16007KT 26/17 A3002 RMK A01 T02570167  RH  057%=      5-min Rain = 0
KSE2 140749Z 17006KT 26/17 A3002 RMK A01 T02570167  RH  057%=      5-min Rain = 0
KSE2 140750Z 17007KT 26/17 A3002 RMK A01 T02570167  RH  058%=      5-min Rain = 0
KSE2 140751Z 17006KT 26/17 A3002 RMK A01 T02570167  RH  058%=      5-min Rain = 0
KSE2 140752Z 17006KT 26/17 A3002 RMK A01 T02560167  RH  058%=      5-min Rain = 0
KSE2 140753Z 18007KT 26/17 A3002 RMK A01 T02560167  RH  058%=      5-min Rain = 0
KSE2 140754Z 17007KT 26/17 A3002 RMK A01 T02550167  RH  058%=      5-min Rain = 0
KSE2 140755Z 17006KT 26/17 A3002 RMK A01 T02550167  RH  058%=      5-min Rain = 0
KSE2 140756Z 16007KT 26/17 A3002 RMK A01 T02550168  RH  058%=      5-min Rain = 0
KSE2 140757Z 17007KT 26/17 A3002 RMK A01 T02550168  RH  059%=      5-min Rain = 0
KSE2 140758Z 17007KT 26/17 A3002 RMK A01 T02550168  RH  059%=      5-min Rain = 0
KSE2 140759Z 16006KT 26/17 A3002 RMK A01 T02550169  RH  059%=      5-min Rain = 0
KSE2 140800Z 16007KT 26/17 A3002 RMK A01 T02550168  RH  059%=      5-min Rain = 0
KSE2 140801Z 16007KT 26/17 A3002 RMK A01 T02550169  RH  059%=      5-min Rain = 0
KSE2 140802Z 16007KT 26/17 A3002 RMK A01 T02550168  RH  059%=      5-min Rain = 0
KSE2 140803Z 16007KT 26/17 A3002 RMK A01 T02550169  RH  059%=      5-min Rain = 0
KSE2 140804Z 16007KT 26/17 A3002 RMK A01 T02550169  RH  059%=      5-min Rain = 0
KSE2 140805Z 16007KT 25/17 A3002 RMK A01 T02540169  RH  059%=      5-min Rain = 0
KSE2 140806Z 17006KT 25/17 A3002 RMK A01 T02540169  RH  059%=      5-min Rain = 0
KSE2 140807Z 17006KT 25/17 A3002 RMK A01 T02540169  RH  059%=      5-min Rain = 0
KSE2 140808Z 17006KT 25/17 A3002 RMK A01 T02530169  RH  060%=      5-min Rain = 0
KSE2 140809Z 17007KT 25/17 A3002 RMK A01 T02530170  RH  060%=      5-min Rain = 0
KSE2 140810Z 16007KT 25/17 A3002 RMK A01 T02530170  RH  060%=      5-min Rain = 0
KSE2 140811Z 17005KT 25/17 A3002 RMK A01 T02530170  RH  060%=      5-min Rain = 0
KSE2 140812Z 17006KT 25/17 A3002 RMK A01 T02520170  RH  060%=      5-min Rain = 0
KSE2 140813Z 17006KT 25/17 A3002 RMK A01 T02520170  RH  060%=      5-min Rain = 0
KSE2 140814Z 18006KT 25/17 A3002 RMK A01 T02520170  RH  060%=      5-min Rain = 0
KSE2 140815Z 17005KT 25/17 A3002 RMK A01 T02520171  RH  061%=      5-min Rain = 0
KSE2 140816Z 17006KT 25/17 A3002 RMK A01 T02520170  RH  061%=      5-min Rain = 0
KSE2 140817Z 16007KT 25/17 A3002 RMK A01 T02520171  RH  061%=      5-min Rain = 0
KSE2 140818Z 16007KT 25/17 A3002 RMK A01 T02510171  RH  061%=      5-min Rain = 0
KSE2 140819Z 17006KT 25/17 A3002 RMK A01 T02510171  RH  061%=      5-min Rain = 0
KSE2 140820Z 17006KT 25/17 A3002 RMK A01 T02520171  RH  061%=      5-min Rain = 0
KSE2 140821Z 16006KT 25/17 A3002 RMK A01 T02520171  RH  061%=      5-min Rain = 0
KSE2 140822Z 16007KT 25/17 A3002 RMK A01 T02510171  RH  061%=      5-min Rain = 0
KSE2 140823Z 16007KT 25/17 A3002 RMK A01 T02510171  RH  061%=      5-min Rain = 0
KSE2 140824Z 17007KT 25/17 A3002 RMK A01 T02510172  RH  061%=      5-min Rain = 0
KSE2 140825Z 17006KT 25/17 A3002 RMK A01 T02510172  RH  062%=      5-min Rain = 0
KSE2 140826Z 16007KT 25/17 A3002 RMK A01 T02510172  RH  062%=      5-min Rain = 0
KSE2 140827Z 16006KT 25/17 A3002 RMK A01 T02500171  RH  062%=      5-min Rain = 0
KSE2 140828Z 16007KT 25/17 A3002 RMK A01 T02490172  RH  062%=      5-min Rain = 0
KSE2 140829Z 16006KT 25/17 A3002 RMK A01 T02500172  RH  062%=      5-min Rain = 0
KSE2 140830Z 17007KT 25/17 A3002 RMK A01 T02490172  RH  062%=      5-min Rain = 0
KSE2 140831Z 16006KT 25/17 A3002 RMK A01 T02490173  RH  062%=      5-min Rain = 0
KSE2 140832Z 17006KT 25/17 A3002 RMK A01 T02490172  RH  062%=      5-min Rain = 0
KSE2 140833Z 17006KT 25/17 A3002 RMK A01 T02490173  RH  063%=      5-min Rain = 0
KSE2 140834Z 17006KT 25/17 A3002 RMK A01 T02490173  RH  063%=      5-min Rain = 0
KSE2 140835Z 16006KT 25/17 A3002 RMK A01 T02490173  RH  063%=      5-min Rain = 0
KSE2 140836Z 16005KT 25/17 A3002 RMK A01 T02480173  RH  063%=      5-min Rain = 0
KSE2 140837Z 17007KT 25/17 A3002 RMK A01 T02480173  RH  063%=      5-min Rain = 0
KSE2 140838Z 16005KT 25/17 A3002 RMK A01 T02480173  RH  063%=      5-min Rain = 0
KSE2 140839Z 17007KT 25/17 A3002 RMK A01 T02480174  RH  063%=      5-min Rain = 0
KSE2 140840Z 17006KT 25/17 A3002 RMK A01 T02480174  RH  064%=      5-min Rain = 0
KSE2 140841Z 17006KT 25/17 A3002 RMK A01 T02480174  RH  064%=      5-min Rain = 0
KSE2 140842Z 18006KT 25/18 A3002 RMK A01 T02480175  RH  064%=      5-min Rain = 0
KSE2 140843Z 17005KT 25/18 A3002 RMK A01 T02470175  RH  064%=      5-min Rain = 0
KSE2 140844Z 17006KT 25/18 A3002 RMK A01 T02470175  RH  064%=      5-min Rain = 0
KSE2 140845Z 18005KT 25/18 A3002 RMK A01 T02480176  RH  064%=      5-min Rain = 0
KSE2 140846Z 17006KT 25/18 A3002 RMK A01 T02470175  RH  064%=      5-min Rain = 0
KSE2 140847Z 18008KT 25/18 A3002 RMK A01 T02470176  RH  064%=      5-min Rain = 0
KSE2 140848Z 18007KT 25/18 A3002 RMK A01 T02470176  RH  065%=      5-min Rain = 0
KSE2 140849Z 16006KT 25/18 A3002 RMK A01 T02470176  RH  065%=      5-min Rain = 0
KSE2 140850Z 18006KT 25/18 A3002 RMK A01 T02460176  RH  065%=      5-min Rain = 0
KSE2 140851Z 17006KT 25/18 A3002 RMK A01 T02460177  RH  065%=      5-min Rain = 0
KSE2 140852Z 18006KT 25/18 A3002 RMK A01 T02460177  RH  065%=      5-min Rain = 0
KSE2 140853Z 17006KT 25/18 A3002 RMK A01 T02460176  RH  065%=      5-min Rain = 0
KSE2 140854Z 18007KT 25/18 A3002 RMK A01 T02460177  RH  065%=      5-min Rain = 0
KSE2 140855Z 18006KT 25/18 A3002 RMK A01 T02450177  RH  065%=      5-min Rain = 0
KSE2 140856Z 17007KT 25/18 A3002 RMK A01 T02450177  RH  066%=      5-min Rain = 0
KSE2 140857Z 17008KT 25/18 A3002 RMK A01 T02460177  RH  066%=      5-min Rain = 0
KSE2 140858Z 18006KT 25/18 A3002 RMK A01 T02450177  RH  066%=      5-min Rain = 0
KSE2 140859Z 17007KT 25/18 A3002 RMK A01 T02450177  RH  066%=      5-min Rain = 0
KSE2 140900Z 17007KT 25/18 A3002 RMK A01 T02450178  RH  066%=      5-min Rain = 0
KSE2 140901Z 17006KT 24/18 A3002 RMK A01 T02440178  RH  066%=      5-min Rain = 0
KSE2 140902Z 17006KT 24/18 A3001 RMK A01 T02440178  RH  066%=      5-min Rain = 0
KSE2 140903Z 17005KT 24/18 A3001 RMK A01 T02440178  RH  067%=      5-min Rain = 0
KSE2 140904Z 17006KT 24/18 A3001 RMK A01 T02440178  RH  067%=      5-min Rain = 0
KSE2 140905Z 17007KT 24/18 A3001 RMK A01 T02440178  RH  067%=      5-min Rain = 0
KSE2 140906Z 17007KT 24/18 A3001 RMK A01 T02440179  RH  067%=      5-min Rain = 0
KSE2 140907Z 17005KT 24/18 A3001 RMK A01 T02440179  RH  067%=      5-min Rain = 0
KSE2 140908Z 17006KT 24/18 A3001 RMK A01 T02440179  RH  067%=      5-min Rain = 0
KSE2 140909Z 17006KT 24/18 A3001 RMK A01 T02430179  RH  067%=      5-min Rain = 0
KSE2 140910Z 17005KT 24/18 A3002 RMK A01 T02430179  RH  068%=      5-min Rain = 0
KSE2 140911Z 17006KT 24/18 A3002 RMK A01 T02430180  RH  068%=      5-min Rain = 0
KSE2 140912Z 17006KT 24/18 A3002 RMK A01 T02430180  RH  068%=      5-min Rain = 0
KSE2 140913Z 17006KT 24/18 A3002 RMK A01 T02420180  RH  068%=      5-min Rain = 0
KSE2 140914Z 18005KT 24/18 A3001 RMK A01 T02420180  RH  068%=      5-min Rain = 0
KSE2 140915Z 17006KT 24/18 A3001 RMK A01 T02420180  RH  068%=      5-min Rain = 0
KSE2 140916Z 17007KT 24/18 A3001 RMK A01 T02420180  RH  068%=      5-min Rain = 0
KSE2 140917Z 17006KT 24/18 A3001 RMK A01 T02420180  RH  069%=      5-min Rain = 0
KSE2 140918Z 18004KT 24/18 A3001 RMK A01 T02410181  RH  069%=      5-min Rain = 0
KSE2 140919Z 17006KT 24/18 A3001 RMK A01 T02410181  RH  069%=      5-min Rain = 0
KSE2 140920Z 17006KT 24/18 A3001 RMK A01 T02410181  RH  069%=      5-min Rain = 0
KSE2 140921Z 16005KT 24/18 A3001 RMK A01 T02410181  RH  069%=      5-min Rain = 0
KSE2 140922Z 18006KT 24/18 A3001 RMK A01 T02410181  RH  069%=      5-min Rain = 0
KSE2 140923Z 17005KT 24/18 A3001 RMK A01 T02410181  RH  069%=      5-min Rain = 0
KSE2 140924Z 18005KT 24/18 A3001 RMK A01 T02410181  RH  069%=      5-min Rain = 0
KSE2 140925Z 17005KT 24/18 A3001 RMK A01 T02410182  RH  070%=      5-min Rain = 0
KSE2 140926Z 18005KT 24/18 A3001 RMK A01 T02400182  RH  070%=      5-min Rain = 0
KSE2 140927Z 17006KT 24/18 A3001 RMK A01 T02400182  RH  070%=      5-min Rain = 0
KSE2 140928Z 18005KT 24/18 A3001 RMK A01 T02400182  RH  070%=      5-min Rain = 0
KSE2 140929Z 17005KT 24/18 A3001 RMK A01 T02400182  RH  070%=      5-min Rain = 0
KSE2 140930Z 17005KT 24/18 A3001 RMK A01 T02400182  RH  070%=      5-min Rain = 0
KSE2 140931Z 17005KT 24/18 A3001 RMK A01 T02390183  RH  070%=      5-min Rain = 0
KSE2 140932Z 17005KT 24/18 A3001 RMK A01 T02390183  RH  070%=      5-min Rain = 0
KSE2 140933Z 17005KT 24/18 A3001 RMK A01 T02390183  RH  071%=      5-min Rain = 0
KSE2 140934Z 17005KT 24/18 A3001 RMK A01 T02390183  RH  071%=      5-min Rain = 0
KSE2 140935Z 17006KT 24/18 A3001 RMK A01 T02390183  RH  071%=      5-min Rain = 0
KSE2 140936Z 17006KT 24/18 A3001 RMK A01 T02390184  RH  071%=      5-min Rain = 0
KSE2 140937Z 17005KT 24/18 A3001 RMK A01 T02390184  RH  071%=      5-min Rain = 0
KSE2 140938Z 17006KT 24/18 A3001 RMK A01 T02390184  RH  071%=      5-min Rain = 0
KSE2 140939Z 18005KT 24/18 A3001 RMK A01 T02390184  RH  071%=      5-min Rain = 0
KSE2 140940Z 17006KT 24/18 A3001 RMK A01 T02380184  RH  072%=      5-min Rain = 0
KSE2 140941Z 17006KT 24/18 A3001 RMK A01 T02380184  RH  072%=      5-min Rain = 0
KSE2 140942Z 17005KT 24/18 A3001 RMK A01 T02380184  RH  072%=      5-min Rain = 0
KSE2 140943Z 17006KT 24/18 A3001 RMK A01 T02380184  RH  072%=      5-min Rain = 0
KSE2 140944Z 17006KT 24/19 A3001 RMK A01 T02380185  RH  072%=      5-min Rain = 0
KSE2 140945Z 17004KT 24/19 A3001 RMK A01 T02380185  RH  072%=      5-min Rain = 0
KSE2 140946Z 17005KT 24/19 A3001 RMK A01 T02380185  RH  072%=      5-min Rain = 0
KSE2 140947Z 17005KT 24/19 A3001 RMK A01 T02370185  RH  073%=      5-min Rain = 0
KSE2 140948Z 17006KT 24/19 A3001 RMK A01 T02370186  RH  073%=      5-min Rain = 0
KSE2 140949Z 17005KT 24/19 A3001 RMK A01 T02370186  RH  073%=      5-min Rain = 0
KSE2 140950Z 17005KT 24/19 A3001 RMK A01 T02370186  RH  073%=      5-min Rain = 0
KSE2 140951Z 17006KT 24/19 A3001 RMK A01 T02370186  RH  073%=      5-min Rain = 0
KSE2 140952Z 17006KT 24/19 A3001 RMK A01 T02370187  RH  074%=      5-min Rain = 0
KSE2 140953Z 17006KT 24/19 A3001 RMK A01 T02370187  RH  074%=      5-min Rain = 0
KSE2 140954Z 17006KT 24/19 A3001 RMK A01 T02370187  RH  074%=      5-min Rain = 0
KSE2 140955Z 17005KT 24/19 A3001 RMK A01 T02370188  RH  074%=      5-min Rain = 0
KSE2 140956Z 17006KT 24/19 A3001 RMK A01 T02370188  RH  074%=      5-min Rain = 0
KSE2 140957Z 17006KT 24/19 A3001 RMK A01 T02370188  RH  074%=      5-min Rain = 0
KSE2 140958Z 18005KT 24/19 A3001 RMK A01 T02370188  RH  074%=      5-min Rain = 0
KSE2 140959Z 17007KT 24/19 A3001 RMK A01 T02370189  RH  074%=      5-min Rain = 0
KSE2 141000Z 18006KT 24/19 A3001 RMK A01 T02370189  RH  075%=      5-min Rain = 0
KSE2 141001Z 18006KT 24/19 A3001 RMK A01 T02360189  RH  075%=      5-min Rain = 0
KSE2 141002Z 18006KT 24/19 A3001 RMK A01 T02360189  RH  075%=      5-min Rain = 0
KSE2 141003Z 18007KT 24/19 A3001 RMK A01 T02360189  RH  075%=      5-min Rain = 0
KSE2 141004Z 18006KT 24/19 A3001 RMK A01 T02360190  RH  075%=      5-min Rain = 0
KSE2 141005Z 18006KT 24/19 A3001 RMK A01 T02360190  RH  075%=      5-min Rain = 0
KSE2 141006Z 19006KT 24/19 A3001 RMK A01 T02360190  RH  075%=      5-min Rain = 0
KSE2 141007Z 18007KT 24/19 A3001 RMK A01 T02360190  RH  075%=      5-min Rain = 0
KSE2 141008Z 19007KT 24/19 A3001 RMK A01 T02350190  RH  076%=      5-min Rain = 0
KSE2 141009Z 18005KT 24/19 A3001 RMK A01 T02360191  RH  076%=      5-min Rain = 0
KSE2 141010Z 18005KT 24/19 A3001 RMK A01 T02350191  RH  076%=      5-min Rain = 0
KSE2 141011Z 19006KT 24/19 A3001 RMK A01 T02350190  RH  076%=      5-min Rain = 0
KSE2 141012Z 18006KT 24/19 A3001 RMK A01 T02350191  RH  076%=      5-min Rain = 0
KSE2 141013Z 19006KT 24/19 A3001 RMK A01 T02350191  RH  076%=      5-min Rain = 0
KSE2 141014Z 18005KT 23/19 A3001 RMK A01 T02340191  RH  077%=      5-min Rain = 0
KSE2 141015Z 19006KT 23/19 A3001 RMK A01 T02340191  RH  077%=      5-min Rain = 0
KSE2 141016Z 18005KT 23/19 A3001 RMK A01 T02340191  RH  077%=      5-min Rain = 0
KSE2 141017Z 19006KT 23/19 A3001 RMK A01 T02340191  RH  077%=      5-min Rain = 0
KSE2 141018Z 19006KT 23/19 A3001 RMK A01 T02340191  RH  077%=      5-min Rain = 0
KSE2 141019Z 18006KT 23/19 A3001 RMK A01 T02340192  RH  077%=      5-min Rain = 0
KSE2 141020Z 18006KT 23/19 A3001 RMK A01 T02340192  RH  077%=      5-min Rain = 0
KSE2 141021Z 18006KT 23/19 A3001 RMK A01 T02340192  RH  077%=      5-min Rain = 0
KSE2 141022Z 18006KT 23/19 A3001 RMK A01 T02340192  RH  077%=      5-min Rain = 0
KSE2 141023Z 18005KT 23/19 A3001 RMK A01 T02340193  RH  078%=      5-min Rain = 0
KSE2 141024Z 18006KT 23/19 A3001 RMK A01 T02330192  RH  078%=      5-min Rain = 0
KSE2 141025Z 18006KT 23/19 A3001 RMK A01 T02330193  RH  078%=      5-min Rain = 0
KSE2 141026Z 18006KT 23/19 A3001 RMK A01 T02330193  RH  078%=      5-min Rain = 0
KSE2 141027Z 18007KT 23/19 A3001 RMK A01 T02330193  RH  078%=      5-min Rain = 0
KSE2 141028Z 19006KT 23/19 A3001 RMK A01 T02330194  RH  078%=      5-min Rain = 0
KSE2 141029Z 18005KT 23/19 A3001 RMK A01 T02330193  RH  078%=      5-min Rain = 0
KSE2 141030Z 18006KT 23/19 A3001 RMK A01 T02330194  RH  078%=      5-min Rain = 0
KSE2 141031Z 18005KT 23/19 A3001 RMK A01 T02330194  RH  079%=      5-min Rain = 0
KSE2 141032Z 17006KT 23/19 A3001 RMK A01 T02330194  RH  079%=      5-min Rain = 0
KSE2 141033Z 18005KT 23/19 A3001 RMK A01 T02330194  RH  079%=      5-min Rain = 0
KSE2 141034Z 18006KT 23/20 A3001 RMK A01 T02330195  RH  079%=      5-min Rain = 0
KSE2 141035Z 17006KT 23/20 A3001 RMK A01 T02320195  RH  079%=      5-min Rain = 0
KSE2 141036Z 17005KT 23/20 A3001 RMK A01 T02330195  RH  079%=      5-min Rain = 0
KSE2 141037Z 18005KT 23/20 A3001 RMK A01 T02330195  RH  079%=      5-min Rain = 0
KSE2 141038Z 17006KT 23/20 A3001 RMK A01 T02330196  RH  079%=      5-min Rain = 0
KSE2 141039Z 17005KT 23/20 A3001 RMK A01 T02330196  RH  080%=      5-min Rain = 0
KSE2 141040Z 17005KT 23/20 A3001 RMK A01 T02330196  RH  080%=      5-min Rain = 0
KSE2 141041Z 17005KT 23/20 A3001 RMK A01 T02330196  RH  080%=      5-min Rain = 0
KSE2 141042Z 17005KT 23/20 A3001 RMK A01 T02320196  RH  080%=      5-min Rain = 0
KSE2 141043Z 17005KT 23/20 A3001 RMK A01 T02320196  RH  080%=      5-min Rain = 0
KSE2 141044Z 16005KT 23/20 A3001 RMK A01 T02320197  RH  080%=      5-min Rain = 0
KSE2 141045Z 17005KT 23/20 A3001 RMK A01 T02320197  RH  080%=      5-min Rain = 0
KSE2 141046Z 17005KT 23/20 A3001 RMK A01 T02320197  RH  081%=      5-min Rain = 0
KSE2 141047Z 16006KT 23/20 A3001 RMK A01 T02320197  RH  081%=      5-min Rain = 0
KSE2 141048Z 17006KT 23/20 A3001 RMK A01 T02320198  RH  081%=      5-min Rain = 0
KSE2 141049Z 17005KT 23/20 A3001 RMK A01 T02320198  RH  081%=      5-min Rain = 0
KSE2 141050Z 17005KT 23/20 A3001 RMK A01 T02320198  RH  081%=      5-min Rain = 0
KSE2 141051Z 17005KT 23/20 A3001 RMK A01 T02310198  RH  081%=      5-min Rain = 0
KSE2 141052Z 18005KT 23/20 A3001 RMK A01 T02310198  RH  082%=      5-min Rain = 0
KSE2 141053Z 18005KT 23/20 A3001 RMK A01 T02310199  RH  082%=      5-min Rain = 0
KSE2 141054Z 17005KT 23/20 A3001 RMK A01 T02310198  RH  082%=      5-min Rain = 0
KSE2 141055Z 18006KT 23/20 A3001 RMK A01 T02310198  RH  082%=      5-min Rain = 0
KSE2 141056Z 18005KT 23/20 A3001 RMK A01 T02310199  RH  082%=      5-min Rain = 0
KSE2 141057Z 18005KT 23/20 A3001 RMK A01 T02300199  RH  082%=      5-min Rain = 0
KSE2 141058Z 18005KT 23/20 A3001 RMK A01 T02300199  RH  082%=      5-min Rain = 0
KSE2 141059Z 18005KT 23/20 A3001 RMK A01 T02300199  RH  083%=      5-min Rain = 0
KSE2 141100Z 18005KT 23/20 A3001 RMK A01 T02300199  RH  083%=      5-min Rain = 0
KSE2 141101Z 17005KT 23/20 A3001 RMK A01 T02300199  RH  083%=      5-min Rain = 0
KSE2 141102Z 17005KT 23/20 A3001 RMK A01 T02290199  RH  083%=      5-min Rain = 0
KSE2 141103Z 17005KT 23/20 A3001 RMK A01 T02290199  RH  083%=      5-min Rain = 0
KSE2 141104Z 17005KT 23/20 A3001 RMK A01 T02300200  RH  083%=      5-min Rain = 0
KSE2 141105Z 17005KT 23/20 A3001 RMK A01 T02290200  RH  084%=      5-min Rain = 0
KSE2 141106Z 18005KT 23/20 A3001 RMK A01 T02300200  RH  084%=      5-min Rain = 0
KSE2 141107Z 17006KT 23/20 A3001 RMK A01 T02300201  RH  084%=      5-min Rain = 0
KSE2 141108Z 17005KT 23/20 A3001 RMK A01 T02300201  RH  084%=      5-min Rain = 0
KSE2 141109Z 17005KT 23/20 A3001 RMK A01 T02300201  RH  084%=      5-min Rain = 0
KSE2 141110Z 17005KT 23/20 A3001 RMK A01 T02290201  RH  084%=      5-min Rain = 0
KSE2 141111Z 17005KT 23/20 A3001 RMK A01 T02290201  RH  084%=      5-min Rain = 0
KSE2 141112Z 17005KT 23/20 A3001 RMK A01 T02300202  RH  084%=      5-min Rain = 0
KSE2 141113Z 17006KT 23/20 A3001 RMK A01 T02300202  RH  084%=      5-min Rain = 0
KSE2 141114Z 16006KT 23/20 A3001 RMK A01 T02300202  RH  085%=      5-min Rain = 0
KSE2 141115Z 18005KT 23/20 A3001 RMK A01 T02300202  RH  085%=      5-min Rain = 0
KSE2 141116Z 17005KT 23/20 A3001 RMK A01 T02300202  RH  085%=      5-min Rain = 0
KSE2 141117Z 17006KT 23/20 A3001 RMK A01 T02300203  RH  085%=      5-min Rain = 0
KSE2 141118Z 17005KT 23/20 A3002 RMK A01 T02300203  RH  085%=      5-min Rain = 0
KSE2 141119Z 17004KT 23/20 A3002 RMK A01 T02300203  RH  085%=      5-min Rain = 0
KSE2 141120Z 17005KT 23/20 A3002 RMK A01 T02300203  RH  085%=      5-min Rain = 0
KSE2 141121Z 18005KT 23/20 A3002 RMK A01 T02300204  RH  085%=      5-min Rain = 0
KSE2 141122Z 16006KT 23/20 A3002 RMK A01 T02300203  RH  085%=      5-min Rain = 0
KSE2 141123Z 17006KT 23/20 A3002 RMK A01 T02300204  RH  086%=      5-min Rain = 0
KSE2 141124Z 17005KT 23/20 A3002 RMK A01 T02300204  RH  086%=      5-min Rain = 0
KSE2 141125Z 17006KT 23/20 A3002 RMK A01 T02290204  RH  086%=      5-min Rain = 0
KSE2 141126Z 17004KT 23/20 A3002 RMK A01 T02290204  RH  086%=      5-min Rain = 0
KSE2 141127Z 17005KT 23/20 A3002 RMK A01 T02300204  RH  086%=      5-min Rain = 0
KSE2 141128Z 17005KT 23/21 A3002 RMK A01 T02300205  RH  086%=      5-min Rain = 0
KSE2 141129Z 17004KT 23/21 A3002 RMK A01 T02300205  RH  086%=      5-min Rain = 0
KSE2 141130Z 17005KT 23/21 A3002 RMK A01 T02290205  RH  086%=      5-min Rain = 0
KSE2 141131Z 16005KT 23/21 A3002 RMK A01 T02290205  RH  086%=      5-min Rain = 0
KSE2 141132Z 17006KT 23/21 A3002 RMK A01 T02290205  RH  086%=      5-min Rain = 0
KSE2 141133Z 16007KT 23/21 A3002 RMK A01 T02290206  RH  087%=      5-min Rain = 0
KSE2 141134Z 16006KT 23/21 A3002 RMK A01 T02290205  RH  087%=      5-min Rain = 0
KSE2 141135Z 15005KT 23/21 A3002 RMK A01 T02290205  RH  086%=      5-min Rain = 0
KSE2 141136Z 16006KT 23/21 A3002 RMK A01 T02290206  RH  087%=      5-min Rain = 0
KSE2 141137Z 16005KT 23/21 A3002 RMK A01 T02290206  RH  087%=      5-min Rain = 0
KSE2 141138Z 16006KT 23/21 A3002 RMK A01 T02290205  RH  087%=      5-min Rain = 0
KSE2 141139Z 16006KT 23/21 A3002 RMK A01 T02290206  RH  087%=      5-min Rain = 0
KSE2 141140Z 16006KT 23/21 A3002 RMK A01 T02290206  RH  087%=      5-min Rain = 0
KSE2 141141Z 15005KT 23/21 A3002 RMK A01 T02280205  RH  087%=      5-min Rain = 0
KSE2 141142Z 16006KT 23/21 A3002 RMK A01 T02280205  RH  087%=      5-min Rain = 0
KSE2 141143Z 15005KT 23/21 A3002 RMK A01 T02280206  RH  087%=      5-min Rain = 0
KSE2 141144Z 16005KT 23/21 A3002 RMK A01 T02280205  RH  087%=      5-min Rain = 0
KSE2 141145Z 15005KT 23/21 A3002 RMK A01 T02280206  RH  087%=      5-min Rain = 0
KSE2 141146Z 15005KT 23/21 A3002 RMK A01 T02270205  RH  087%=      5-min Rain = 0
KSE2 141147Z 15005KT 23/21 A3002 RMK A01 T02270205  RH  087%=      5-min Rain = 0
KSE2 141148Z 15005KT 23/21 A3002 RMK A01 T02270206  RH  088%=      5-min Rain = 0
KSE2 141149Z 15006KT 23/21 A3002 RMK A01 T02270206  RH  088%=      5-min Rain = 0
KSE2 141150Z 15005KT 23/21 A3002 RMK A01 T02270205  RH  088%=      5-min Rain = 0
KSE2 141151Z 16004KT 23/21 A3002 RMK A01 T02270206  RH  088%=      5-min Rain = 0
KSE2 141152Z 16005KT 23/21 A3002 RMK A01 T02270206  RH  088%=      5-min Rain = 0
KSE2 141153Z 16005KT 23/21 A3002 RMK A01 T02270206  RH  088%=      5-min Rain = 0
KSE2 141154Z 17005KT 23/21 A3002 RMK A01 T02270206  RH  088%=      5-min Rain = 0
KSE2 141155Z 17004KT 23/21 A3002 RMK A01 T02270207  RH  088%=      5-min Rain = 0
KSE2 141156Z 17005KT 23/21 A3002 RMK A01 T02270207  RH  089%=      5-min Rain = 0
KSE2 141157Z 17005KT 23/21 A3002 RMK A01 T02270208  RH  089%=      5-min Rain = 0
KSE2 141158Z 17005KT 23/21 A3002 RMK A01 T02270207  RH  089%=      5-min Rain = 0
KSE2 141159Z 18005KT 23/21 A3002 RMK A01 T02260207  RH  089%=      5-min Rain = 0
KSE2 141200Z 18004KT 23/21 A3002 RMK A01 T02260207  RH  089%=      5-min Rain = 0
KSE2 141201Z 17005KT 23/21 A3002 RMK A01 T02270208  RH  089%=      5-min Rain = 0
KSE2 141202Z 17006KT 23/21 A3002 RMK A01 T02260208  RH  089%=      5-min Rain = 0
KSE2 141203Z 18005KT 23/21 A3002 RMK A01 T02270208  RH  089%=      5-min Rain = 0
KSE2 141204Z 19005KT 23/21 A3002 RMK A01 T02270208  RH  089%=      5-min Rain = 0
KSE2 141205Z 17005KT 23/21 A3002 RMK A01 T02270209  RH  089%=      5-min Rain = 0
KSE2 141206Z 18007KT 23/21 A3002 RMK A01 T02270209  RH  089%=      5-min Rain = 0
KSE2 141207Z 18006KT 23/21 A3002 RMK A01 T02270209  RH  090%=      5-min Rain = 0
KSE2 141208Z 18005KT 23/21 A3002 RMK A01 T02270209  RH  090%=      5-min Rain = 0
KSE2 141209Z 19006KT 23/21 A3002 RMK A01 T02270210  RH  090%=      5-min Rain = 0
KSE2 141210Z 17006KT 23/21 A3002 RMK A01 T02270209  RH  090%=      5-min Rain = 0
KSE2 141211Z 18005KT 23/21 A3002 RMK A01 T02270210  RH  090%=      5-min Rain = 0
KSE2 141212Z 18005KT 23/21 A3002 RMK A01 T02270210  RH  090%=      5-min Rain = 0
KSE2 141213Z 18005KT 23/21 A3002 RMK A01 T02280210  RH  090%=      5-min Rain = 0
KSE2 141214Z 18007KT 23/21 A3002 RMK A01 T02280210  RH  090%=      5-min Rain = 0
KSE2 141215Z 18007KT 23/21 A3002 RMK A01 T02280210  RH  090%=      5-min Rain = 0
KSE2 141216Z 18006KT 23/21 A3002 RMK A01 T02280210  RH  090%=      5-min Rain = 0
KSE2 141217Z 18005KT 23/21 A3002 RMK A01 T02280210  RH  090%=      5-min Rain = 0
KSE2 141218Z 18006KT 23/21 A3002 RMK A01 T02280210  RH  090%=      5-min Rain = 0
KSE2 141219Z 17005KT 23/21 A3002 RMK A01 T02280210  RH  090%=      5-min Rain = 0
KSE2 141220Z 18006KT 23/21 A3002 RMK A01 T02280210  RH  090%=      5-min Rain = 0
KSE2 141221Z 18006KT 23/21 A3002 RMK A01 T02280210  RH  090%=      5-min Rain = 0
KSE2 141222Z 18008KT 23/21 A3002 RMK A01 T02280211  RH  090%=      5-min Rain = 0
KSE2 141223Z 17007KT 23/21 A3002 RMK A01 T02290211  RH  090%=      5-min Rain = 0
KSE2 141224Z 18006KT 23/21 A3002 RMK A01 T02290211  RH  090%=      5-min Rain = 0
KSE2 141225Z 17006KT 23/21 A3002 RMK A01 T02290211  RH  090%=      5-min Rain = 0
KSE2 141226Z 18005KT 23/21 A3002 RMK A01 T02290211  RH  089%=      5-min Rain = 0
KSE2 141227Z 18007KT 23/21 A3002 RMK A01 T02290211  RH  090%=      5-min Rain = 0
KSE2 141228Z 18006KT 23/21 A3002 RMK A01 T02290211  RH  090%=      5-min Rain = 0
KSE2 141229Z 17007KT 23/21 A3002 RMK A01 T02290211  RH  089%=      5-min Rain = 0
KSE2 141230Z 18006KT 23/21 A3002 RMK A01 T02300211  RH  089%=      5-min Rain = 0
KSE2 141231Z 18005KT 23/21 A3002 RMK A01 T02300212  RH  089%=      5-min Rain = 0
KSE2 141232Z 17006KT 23/21 A3002 RMK A01 T02300212  RH  089%=      5-min Rain = 0
KSE2 141233Z 18006KT 23/21 A3002 RMK A01 T02300212  RH  089%=      5-min Rain = 0
KSE2 141234Z 18007KT 23/21 A3002 RMK A01 T02310212  RH  089%=      5-min Rain = 0
KSE2 141235Z 18007KT 23/21 A3003 RMK A01 T02310212  RH  089%=      5-min Rain = 0
KSE2 141236Z 19007KT 23/21 A3003 RMK A01 T02310212  RH  089%=      5-min Rain = 0
KSE2 141237Z 19006KT 23/21 A3003 RMK A01 T02310212  RH  089%=      5-min Rain = 0
KSE2 141238Z 18007KT 23/21 A3003 RMK A01 T02310212  RH  089%=      5-min Rain = 0
KSE2 141239Z 18007KT 23/21 A3003 RMK A01 T02320212  RH  089%=      5-min Rain = 0
KSE2 141240Z 19006KT 23/21 A3003 RMK A01 T02320212  RH  089%=      5-min Rain = 0
KSE2 141241Z 18005KT 23/21 A3003 RMK A01 T02320212  RH  088%=      5-min Rain = 0
KSE2 141242Z 18007KT 23/21 A3003 RMK A01 T02320212  RH  088%=      5-min Rain = 0
KSE2 141243Z 18005KT 23/21 A3003 RMK A01 T02330212  RH  088%=      5-min Rain = 0
KSE2 141244Z 17006KT 23/21 A3003 RMK A01 T02330212  RH  088%=      5-min Rain = 0
KSE2 141245Z 18005KT 23/21 A3003 RMK A01 T02330212  RH  088%=      5-min Rain = 0
KSE2 141246Z 18006KT 23/21 A3003 RMK A01 T02340213  RH  088%=      5-min Rain = 0
KSE2 141247Z 18006KT 23/21 A3003 RMK A01 T02340212  RH  088%=      5-min Rain = 0
KSE2 141248Z 19006KT 23/21 A3003 RMK A01 T02340212  RH  088%=      5-min Rain = 0
KSE2 141249Z 18006KT 24/21 A3003 RMK A01 T02350213  RH  088%=      5-min Rain = 0
KSE2 141250Z 17008KT 24/21 A3003 RMK A01 T02350213  RH  087%=      5-min Rain = 0
KSE2 141251Z 19007G12KT 24/21 A3003 RMK A01 T02350213  RH  087%=      5-min Rain = 0
KSE2 141252Z 19008KT 24/21 A3003 RMK A01 T02360213  RH  087%=      5-min Rain = 0
KSE2 141253Z 18007KT 24/21 A3003 RMK A01 T02350213  RH  087%=      5-min Rain = 0
KSE2 141254Z 18007KT 24/21 A3003 RMK A01 T02360213  RH  087%=      5-min Rain = 0
KSE2 141255Z 19007KT 24/21 A3003 RMK A01 T02360213  RH  087%=      5-min Rain = 0
KSE2 141256Z 19007KT 24/21 A3003 RMK A01 T02370213  RH  087%=      5-min Rain = 0
KSE2 141257Z 20006KT 24/21 A3003 RMK A01 T02370213  RH  086%=      5-min Rain = 0
KSE2 141258Z 18005KT 24/21 A3003 RMK A01 T02370213  RH  086%=      5-min Rain = 0
KSE2 141259Z 19005KT 24/21 A3003 RMK A01 T02380213  RH  086%=      5-min Rain = 0
KSE2 141300Z 19007KT 24/21 A3003 RMK A01 T02380213  RH  086%=      5-min Rain = 0
KSE2 141301Z 17006KT 24/21 A3003 RMK A01 T02390213  RH  086%=      5-min Rain = 0
KSE2 141302Z 18006KT 24/21 A3003 RMK A01 T02390213  RH  085%=      5-min Rain = 0
KSE2 141303Z 19008KT 24/21 A3003 RMK A01 T02400213  RH  085%=      5-min Rain = 0
KSE2 141304Z 18009KT 24/21 A3003 RMK A01 T02400213  RH  085%=      5-min Rain = 0
KSE2 141305Z 18007G13KT 24/21 A3003 RMK A01 T02400213  RH  085%=      5-min Rain = 0
KSE2 141306Z 19007KT 24/21 A3003 RMK A01 T02410213  RH  084%=      5-min Rain = 0
KSE2 141307Z 18008KT 24/21 A3003 RMK A01 T02410213  RH  085%=      5-min Rain = 0
KSE2 141308Z 19010KT 24/21 A3003 RMK A01 T02410213  RH  084%=      5-min Rain = 0
KSE2 141309Z 20006KT 24/21 A3003 RMK A01 T02420213  RH  084%=      5-min Rain = 0
KSE2 141310Z 20007KT 24/21 A3003 RMK A01 T02420212  RH  084%=      5-min Rain = 0
KSE2 141311Z 20007KT 24/21 A3003 RMK A01 T02430213  RH  083%=      5-min Rain = 0
KSE2 141312Z 18006KT 24/21 A3003 RMK A01 T02430212  RH  083%=      5-min Rain = 0
KSE2 141313Z 18007KT 24/21 A3003 RMK A01 T02430213  RH  083%=      5-min Rain = 0
KSE2 141314Z 19005KT 24/21 A3003 RMK A01 T02440213  RH  083%=      5-min Rain = 0
KSE2 141315Z 18006KT 25/21 A3003 RMK A01 T02450213  RH  082%=      5-min Rain = 0
KSE2 141316Z 19007KT 25/21 A3003 RMK A01 T02460212  RH  082%=      5-min Rain = 0
KSE2 141317Z 19008KT 25/21 A3003 RMK A01 T02460212  RH  081%=      5-min Rain = 0
KSE2 141318Z 18009KT 25/21 A3003 RMK A01 T02460212  RH  081%=      5-min Rain = 0
KSE2 141319Z 19008KT 25/21 A3003 RMK A01 T02460211  RH  081%=      5-min Rain = 0
KSE2 141320Z 19008KT 25/21 A3003 RMK A01 T02470212  RH  081%=      5-min Rain = 0
KSE2 141321Z 20008KT 25/21 A3003 RMK A01 T02480211  RH  080%=      5-min Rain = 0
KSE2 141322Z 19007KT 25/21 A3003 RMK A01 T02480211  RH  079%=      5-min Rain = 0
KSE2 141323Z 19006KT 25/21 A3003 RMK A01 T02490211  RH  079%=      5-min Rain = 0
KSE2 141324Z 18006KT 25/21 A3003 RMK A01 T02510211  RH  079%=      5-min Rain = 0
KSE2 141325Z 18009KT 25/21 A3003 RMK A01 T02520211  RH  078%=      5-min Rain = 0
KSE2 141326Z 19011KT 25/21 A3003 RMK A01 T02520209  RH  077%=      5-min Rain = 0
KSE2 141327Z 19009KT 25/21 A3003 RMK A01 T02520208  RH  077%=      5-min Rain = 0
KSE2 141328Z 19010KT 25/21 A3004 RMK A01 T02520208  RH  076%=      5-min Rain = 0
KSE2 141329Z 19011KT 25/21 A3004 RMK A01 T02520207  RH  076%=      5-min Rain = 0
KSE2 141330Z 20010KT 25/21 A3004 RMK A01 T02530208  RH  076%=      5-min Rain = 0
KSE2 141331Z 19010KT 25/21 A3004 RMK A01 T02530208  RH  076%=      5-min Rain = 0
KSE2 141332Z 19010KT 25/21 A3004 RMK A01 T02530207  RH  076%=      5-min Rain = 0
KSE2 141333Z 20009KT 25/21 A3004 RMK A01 T02540208  RH  076%=      5-min Rain = 0
KSE2 141334Z 19008KT 25/21 A3004 RMK A01 T02540207  RH  075%=      5-min Rain = 0
KSE2 141335Z 19007KT 26/21 A3004 RMK A01 T02550208  RH  075%=      5-min Rain = 0
KSE2 141336Z 18006KT 26/21 A3004 RMK A01 T02570208  RH  074%=      5-min Rain = 0
KSE2 141337Z 18010KT 26/21 A3004 RMK A01 T02580208  RH  074%=      5-min Rain = 0
KSE2 141338Z 20009KT 26/21 A3004 RMK A01 T02580207  RH  073%=      5-min Rain = 0
KSE2 141339Z 19010G15KT 26/21 A3004 RMK A01 T02580206  RH  073%=      5-min Rain = 0
KSE2 141340Z 20009KT 26/21 A3004 RMK A01 T02580206  RH  073%=      5-min Rain = 0
KSE2 141341Z 20008KT 26/21 A3004 RMK A01 T02590205  RH  072%=      5-min Rain = 0
KSE2 141342Z 19007G13KT 26/21 A3004 RMK A01 T02600206  RH  072%=      5-min Rain = 0
KSE2 141343Z 18007KT 26/21 A3004 RMK A01 T02600206  RH  072%=      5-min Rain = 0
KSE2 141344Z 20008KT 26/21 A3004 RMK A01 T02610206  RH  072%=      5-min Rain = 0
KSE2 141345Z 20008KT 26/21 A3004 RMK A01 T02610205  RH  071%=      5-min Rain = 0
KSE2 141346Z 18012KT 26/20 A3004 RMK A01 T02620204  RH  071%=      5-min Rain = 0
KSE2 141347Z 19012KT 26/20 A3004 RMK A01 T02610203  RH  070%=      5-min Rain = 0
KSE2 141348Z 20013KT 26/20 A3004 RMK A01 T02610202  RH  070%=      5-min Rain = 0
KSE2 141349Z 19008KT 26/20 A3004 RMK A01 T02600203  RH  071%=      5-min Rain = 0
KSE2 141350Z 19007KT 26/20 A3004 RMK A01 T02600202  RH  070%=      5-min Rain = 0
KSE2 141351Z 21008KT 26/20 A3004 RMK A01 T02610203  RH  070%=      5-min Rain = 0
KSE2 141352Z 21010KT 26/20 A3004 RMK A01 T02630202  RH  069%=      5-min Rain = 0
KSE2 141353Z 20011KT 26/20 A3004 RMK A01 T02630201  RH  069%=      5-min Rain = 0
KSE2 141354Z 19012KT 26/20 A3004 RMK A01 T02640200  RH  068%=      5-min Rain = 0
KSE2 141355Z 20012KT 26/20 A3004 RMK A01 T02640200  RH  068%=      5-min Rain = 0
KSE2 141356Z 20013KT 26/20 A3004 RMK A01 T02630199  RH  067%=      5-min Rain = 0
KSE2 141357Z 20011G16KT 26/20 A3004 RMK A01 T02630198  RH  067%=      5-min Rain = 0
KSE2 141358Z 20012KT 26/20 A3004 RMK A01 T02640198  RH  067%=      5-min Rain = 0
KSE2 141359Z 19011KT 26/20 A3004 RMK A01 T02640198  RH  067%=      5-min Rain = 0
KSE2 141400Z 19012G17KT 27/20 A3004 RMK A01 T02650197  RH  066%=      5-min Rain = 0
KSE2 141401Z 19009KT 27/20 A3004 RMK A01 T02650197  RH  066%=      5-min Rain = 0
KSE2 141402Z 19012KT 27/20 A3004 RMK A01 T02660198  RH  066%=      5-min Rain = 0
KSE2 141403Z 19009KT 27/20 A3004 RMK A01 T02660198  RH  066%=      5-min Rain = 0
KSE2 141404Z 18011KT 27/20 A3004 RMK A01 T02680198  RH  065%=      5-min Rain = 0
KSE2 141405Z 19010KT 27/20 A3004 RMK A01 T02680197  RH  065%=      5-min Rain = 0
KSE2 141406Z 20012KT 27/20 A3004 RMK A01 T02680198  RH  065%=      5-min Rain = 0
KSE2 141407Z 20013KT 27/20 A3004 RMK A01 T02680197  RH  065%=      5-min Rain = 0
KSE2 141408Z 20012KT 27/20 A3004 RMK A01 T02680196  RH  065%=      5-min Rain = 0
KSE2 141409Z 21011KT 27/20 A3004 RMK A01 T02690196  RH  064%=      5-min Rain = 0
KSE2 141410Z 20010KT 27/20 A3004 RMK A01 T02690196  RH  064%=      5-min Rain = 0
KSE2 141411Z 19010KT 27/20 A3004 RMK A01 T02690196  RH  064%=      5-min Rain = 0
KSE2 141412Z 19011KT 27/20 A3004 RMK A01 T02700196  RH  064%=      5-min Rain = 0
KSE2 141413Z 19011KT 27/20 A3004 RMK A01 T02710196  RH  064%=      5-min Rain = 0
KSE2 141414Z 19011KT 27/20 A3004 RMK A01 T02720197  RH  064%=      5-min Rain = 0
KSE2 141415Z 20010KT 27/20 A3004 RMK A01 T02720197  RH  063%=      5-min Rain = 0
KSE2 141416Z 19014KT 27/20 A3004 RMK A01 T02730197  RH  063%=      5-min Rain = 0
KSE2 141417Z 18013KT 27/20 A3004 RMK A01 T02730195  RH  062%=      5-min Rain = 0
KSE2 141418Z 19012KT 27/20 A3004 RMK A01 T02730195  RH  062%=      5-min Rain = 0
KSE2 141419Z 19013KT 27/20 A3004 RMK A01 T02730195  RH  062%=      5-min Rain = 0
KSE2 141420Z 19012KT 27/20 A3004 RMK A01 T02730195  RH  062%=      5-min Rain = 0
KSE2 141421Z 20012KT 27/20 A3004 RMK A01 T02730196  RH  062%=      5-min Rain = 0
KSE2 141422Z 18013KT 27/20 A3004 RMK A01 T02740195  RH  062%=      5-min Rain = 0
KSE2 141423Z 19012KT 27/20 A3004 RMK A01 T02740195  RH  062%=      5-min Rain = 0
KSE2 141424Z 19015KT 28/20 A3004 RMK A01 T02750195  RH  062%=      5-min Rain = 0
KSE2 141425Z 19011G16KT 28/20 A3004 RMK A01 T02750195  RH  062%=      5-min Rain = 0
KSE2 141426Z 19009G16KT 28/20 A3004 RMK A01 T02760196  RH  062%=      5-min Rain = 0
KSE2 141427Z 19011KT 28/20 A3004 RMK A01 T02780196  RH  061%=      5-min Rain = 0
KSE2 141428Z 20011KT 28/20 A3004 RMK A01 T02780196  RH  061%=      5-min Rain = 0
KSE2 141429Z 19012KT 28/20 A3004 RMK A01 T02780196  RH  061%=      5-min Rain = 0
KSE2 141430Z 21010KT 28/20 A3004 RMK A01 T02780195  RH  061%=      5-min Rain = 0
KSE2 141431Z 21010G16KT 28/20 A3004 RMK A01 T02790195  RH  060%=      5-min Rain = 0
KSE2 141432Z 21011KT 28/20 A3004 RMK A01 T02800195  RH  060%=      5-min Rain = 0
KSE2 141433Z 19009KT 28/20 A3004 RMK A01 T02800195  RH  060%=      5-min Rain = 0
KSE2 141434Z 18011KT 28/20 A3004 RMK A01 T02820196  RH  060%=      5-min Rain = 0
KSE2 141435Z 18008G13KT 28/20 A3004 RMK A01 T02830196  RH  059%=      5-min Rain = 0
KSE2 141436Z 18010G16KT 28/20 A3004 RMK A01 T02840196  RH  059%=      5-min Rain = 0
KSE2 141437Z 18012G17KT 29/20 A3004 RMK A01 T02860195  RH  058%=      5-min Rain = 0
KSE2 141438Z 19014KT 28/19 A3004 RMK A01 T02840194  RH  058%=      5-min Rain = 0
KSE2 141439Z 19012KT 28/19 A3004 RMK A01 T02820194  RH  059%=      5-min Rain = 0
KSE2 141440Z 20011G17KT 28/20 A3004 RMK A01 T02820195  RH  059%=      5-min Rain = 0
KSE2 141441Z 20014KT 28/19 A3003 RMK A01 T02820194  RH  059%=      5-min Rain = 0
KSE2 141442Z 19014KT 28/19 A3003 RMK A01 T02820194  RH  059%=      5-min Rain = 0
KSE2 141443Z 19015KT 28/19 A3003 RMK A01 T02810193  RH  059%=      5-min Rain = 0
KSE2 141444Z 19014KT 28/19 A3003 RMK A01 T02810193  RH  059%=      5-min Rain = 0
KSE2 141445Z 19011G16KT 28/19 A3004 RMK A01 T02810194  RH  059%=      5-min Rain = 0
KSE2 141446Z 19011G17KT 28/19 A3004 RMK A01 T02810194  RH  059%=      5-min Rain = 0
KSE2 141447Z 20014G20KT 28/19 A3003 RMK A01 T02820194  RH  059%=      5-min Rain = 0
KSE2 141448Z 20011KT 28/19 A3004 RMK A01 T02820194  RH  059%=      5-min Rain = 0
KSE2 141449Z 20014G19KT 28/19 A3003 RMK A01 T02830194  RH  058%=      5-min Rain = 0
KSE2 141450Z 20011KT 28/19 A3004 RMK A01 T02820192  RH  058%=      5-min Rain = 0
KSE2 141451Z 20011KT 28/19 A3004 RMK A01 T02840194  RH  058%=      5-min Rain = 0
KSE2 141452Z 20011KT 29/19 A3003 RMK A01 T02860194  RH  058%=      5-min Rain = 0
KSE2 141453Z 21010KT 29/19 A3004 RMK A01 T02860194  RH  058%=      5-min Rain = 0
KSE2 141454Z 20011KT 29/19 A3004 RMK A01 T02870194  RH  057%=      5-min Rain = 0
KSE2 141455Z 20012KT 29/19 A3004 RMK A01 T02880194  RH  057%=      5-min Rain = 0
KSE2 141456Z 21011KT 29/19 A3004 RMK A01 T02870194  RH  057%=      5-min Rain = 0
KSE2 141457Z 21012KT 29/19 A3004 RMK A01 T02860193  RH  057%=      5-min Rain = 0
KSE2 141458Z 19010G17KT 29/19 A3004 RMK A01 T02870193  RH  057%=      5-min Rain = 0
KSE2 141459Z 20012KT 29/19 A3004 RMK A01 T02900193  RH  056%=      5-min Rain = 0
KSE2 141500Z 20013KT 29/19 A3004 RMK A01 T02900191  RH  055%=      5-min Rain = 0
KSE2 141501Z 19015KT 29/19 A3004 RMK A01 T02900191  RH  055%=      5-min Rain = 0
KSE2 141502Z 19013KT 29/19 A3004 RMK A01 T02890191  RH  056%=      5-min Rain = 0
KSE2 141503Z 19012KT 29/19 A3004 RMK A01 T02880191  RH  056%=      5-min Rain = 0
KSE2 141504Z 19012KT 29/19 A3004 RMK A01 T02890191  RH  055%=      5-min Rain = 0
KSE2 141505Z 20011KT 29/19 A3004 RMK A01 T02900191  RH  055%=      5-min Rain = 0
KSE2 141506Z 20012KT 29/19 A3004 RMK A01 T02900191  RH  055%=      5-min Rain = 0
KSE2 141507Z 20010G15KT 29/19 A3004 RMK A01 T02900192  RH  055%=      5-min Rain = 0
KSE2 141508Z 19012KT 29/19 A3004 RMK A01 T02910192  RH  055%=      5-min Rain = 0
KSE2 141509Z 21008G13KT 29/19 A3004 RMK A01 T02910192  RH  055%=      5-min Rain = 0
KSE2 141510Z 20009KT 29/19 A3004 RMK A01 T02920192  RH  055%=      5-min Rain = 0
KSE2 141511Z 21011KT 30/19 A3004 RMK A01 T02950192  RH  054%=      5-min Rain = 0
KSE2 141512Z 20008KT 30/19 A3004 RMK A01 T02970192  RH  053%=      5-min Rain = 0
KSE2 141513Z 19007KT 30/19 A3004 RMK A01 T02970193  RH  054%=      5-min Rain = 0
KSE2 141514Z 19008G13KT 30/19 A3004 RMK A01 T03000193  RH  053%=      5-min Rain = 0
KSE2 141515Z 20010G17KT 30/19 A3004 RMK A01 T03020191  RH  051%=      5-min Rain = 0
KSE2 141516Z 19010G15KT 30/19 A3004 RMK A01 T03020191  RH  052%=      5-min Rain = 0
KSE2 141517Z 18011KT 30/19 A3004 RMK A01 T03010191  RH  052%=      5-min Rain = 0
KSE2 141518Z 19012KT 30/19 A3004 RMK A01 T02990190  RH  052%=      5-min Rain = 0
KSE2 141519Z 18011KT 30/19 A3004 RMK A01 T02970189  RH  052%=      5-min Rain = 0
KSE2 141520Z 18007KT 30/19 A3004 RMK A01 T02970188  RH  052%=      5-min Rain = 0
KSE2 141521Z 19007G17KT 30/19 A3004 RMK A01 T02990189  RH  052%=      5-min Rain = 0
KSE2 141522Z 19015KT 30/19 A3004 RMK A01 T03010189  RH  051%=      5-min Rain = 0
KSE2 141523Z 19012KT 30/19 A3004 RMK A01 T02990188  RH  051%=      5-min Rain = 0
KSE2 141524Z 21010G16KT 30/19 A3004 RMK A01 T02980186  RH  051%=      5-min Rain = 0
KSE2 141525Z 21013KT 30/18 A3004 RMK A01 T02980184  RH  050%=      5-min Rain = 0
KSE2 141526Z 19010G15KT 30/19 A3004 RMK A01 T02990185  RH  051%=      5-min Rain = 0
KSE2 141527Z 20012KT 30/19 A3004 RMK A01 T02990186  RH  051%=      5-min Rain = 0
KSE2 141528Z 21011KT 30/19 A3004 RMK A01 T03000186  RH  050%=      5-min Rain = 0
KSE2 141529Z 20009KT 30/19 A3004 RMK A01 T02990185  RH  050%=      5-min Rain = 0
KSE2 141530Z 19012KT 30/18 A3004 RMK A01 T03000183  RH  049%=      5-min Rain = 0
KSE2 141531Z 19010KT 30/18 A3004 RMK A01 T03010183  RH  049%=      5-min Rain = 0
KSE2 141532Z 20011KT 30/19 A3004 RMK A01 T03020185  RH  049%=      5-min Rain = 0
KSE2 141533Z 21008KT 30/18 A3004 RMK A01 T03020183  RH  049%=      5-min Rain = 0
KSE2 141534Z 20008KT 30/18 A3004 RMK A01 T03010184  RH  049%=      5-min Rain = 0
KSE2 141535Z 19012KT 30/18 A3004 RMK A01 T03040183  RH  048%=      5-min Rain = 0
KSE2 141536Z 19010KT 31/18 A3004 RMK A01 T03050182  RH  048%=      5-min Rain = 0
KSE2 141537Z 19011KT 31/18 A3004 RMK A01 T03050180  RH  047%=      5-min Rain = 0
KSE2 141538Z 19007G14KT 31/18 A3004 RMK A01 T03050183  RH  048%=      5-min Rain = 0
KSE2 141539Z 18009KT 31/18 A3004 RMK A01 T03070184  RH  048%=      5-min Rain = 0
KSE2 141540Z 18011KT 31/18 A3004 RMK A01 T03090184  RH  047%=      5-min Rain = 0
KSE2 141541Z 17011KT 31/18 A3004 RMK A01 T03090182  RH  047%=      5-min Rain = 0
KSE2 141542Z 16008KT 31/18 A3004 RMK A01 T03080182  RH  047%=      5-min Rain = 0
KSE2 141543Z 19010G15KT 31/18 A3004 RMK A01 T03100182  RH  046%=      5-min Rain = 0
KSE2 141544Z 18010KT 31/18 A3004 RMK A01 T03120183  RH  046%=      5-min Rain = 0
KSE2 141545Z 18010KT 31/18 A3004 RMK A01 T03120183  RH  046%=      5-min Rain = 0
KSE2 141546Z 17010KT 31/18 A3004 RMK A01 T03120184  RH  046%=      5-min Rain = 0
KSE2 141547Z 18008G13KT 31/18 A3004 RMK A01 T03120184  RH  046%=      5-min Rain = 0
KSE2 141548Z 18009G16KT 31/18 A3004 RMK A01 T03120184  RH  046%=      5-min Rain = 0
KSE2 141549Z 19012KT 31/18 A3004 RMK A01 T03120176  RH  044%=      5-min Rain = 0
KSE2 141550Z 18010KT 31/18 A3004 RMK A01 T03100177  RH  045%=      5-min Rain = 0
KSE2 141551Z 19010KT 31/18 A3004 RMK A01 T03100177  RH  045%=      5-min Rain = 0
KSE2 141552Z 19011KT 31/18 A3004 RMK A01 T03110177  RH  045%=      5-min Rain = 0
KSE2 141553Z 21007KT 31/18 A3004 RMK A01 T03110180  RH  046%=      5-min Rain = 0
KSE2 141554Z 20008KT 31/18 A3004 RMK A01 T03120182  RH  046%=      5-min Rain = 0
KSE2 141555Z 19008KT 31/18 A3004 RMK A01 T03110181  RH  046%=      5-min Rain = 0
KSE2 141556Z 17007KT 31/18 A3004 RMK A01 T03120181  RH  046%=      5-min Rain = 0
KSE2 141557Z 17009KT 32/18 A3004 RMK A01 T03150183  RH  045%=      5-min Rain = 0
KSE2 141558Z 17008KT 32/18 A3004 RMK A01 T03160183  RH  045%=      5-min Rain = 0
KSE2 141559Z 18010KT 32/18 A3004 RMK A01 T03160183  RH  045%=      5-min Rain = 0
KSE2 141600Z 16009KT 32/18 A3004 RMK A01 T03160183  RH  045%=      5-min Rain = 0
KSE2 141601Z 15009G14KT 32/18 A3004 RMK A01 T03160181  RH  045%=      5-min Rain = 0
KSE2 141602Z 17009G14KT 32/18 A3004 RMK A01 T03190182  RH  044%=      5-min Rain = 0
KSE2 141603Z 16011KT 32/18 A3004 RMK A01 T03210183  RH  044%=      5-min Rain = 0
KSE2 141604Z 16009KT 32/18 A3004 RMK A01 T03180181  RH  044%=      5-min Rain = 0
KSE2 141605Z 19007KT 32/18 A3004 RMK A01 T03160179  RH  044%=      5-min Rain = 0
KSE2 141606Z 18008KT 32/18 A3004 RMK A01 T03180181  RH  044%=      5-min Rain = 0
KSE2 141607Z 18009KT 32/18 A3004 RMK A01 T03210182  RH  044%=      5-min Rain = 0
KSE2 141608Z 17009KT 32/18 A3004 RMK A01 T03220182  RH  043%=      5-min Rain = 0
KSE2 141609Z 17008KT 32/18 A3004 RMK A01 T03220181  RH  043%=      5-min Rain = 0
KSE2 141610Z 16009KT 32/18 A3004 RMK A01 T03230181  RH  043%=      5-min Rain = 0
KSE2 141611Z 17008KT 32/18 A3004 RMK A01 T03230181  RH  043%=      5-min Rain = 0
KSE2 141612Z 19008KT 32/18 A3004 RMK A01 T03230181  RH  043%=      5-min Rain = 0
KSE2 141613Z 17008G13KT 32/18 A3004 RMK A01 T03240181  RH  043%=      5-min Rain = 0
KSE2 141614Z 16010KT 32/18 A3004 RMK A01 T03230181  RH  043%=      5-min Rain = 0
KSE2 141615Z 15012KT 32/18 A3004 RMK A01 T03220179  RH  043%=      5-min Rain = 0
KSE2 141616Z 16010KT 32/18 A3004 RMK A01 T03210180  RH  043%=      5-min Rain = 0
KSE2 141617Z 18011KT 32/18 A3004 RMK A01 T03240181  RH  043%=      5-min Rain = 0
KSE2 141618Z 18011KT 32/18 A3004 RMK A01 T03240180  RH  042%=      5-min Rain = 0
KSE2 141619Z 18008KT 32/18 A3004 RMK A01 T03220178  RH  042%=      5-min Rain = 0
KSE2 141620Z 20004KT 32/18 A3004 RMK A01 T03200179  RH  043%=      5-min Rain = 0
KSE2 141621Z 16006G11KT 32/18 A3004 RMK A01 T03240180  RH  042%=      5-min Rain = 0
KSE2 141622Z 21004G11KT 33/18 A3004 RMK A01 T03250180  RH  042%=      5-min Rain = 0
KSE2 141623Z 19011KT 32/18 A3004 RMK A01 T03240178  RH  042%=      5-min Rain = 0
KSE2 141624Z 18010KT 32/18 A3004 RMK A01 T03220177  RH  042%=      5-min Rain = 0
KSE2 141625Z 21008KT 32/18 A3004 RMK A01 T03200177  RH  043%=      5-min Rain = 0
KSE2 141626Z 23008KT 32/18 A3004 RMK A01 T03240178  RH  042%=      5-min Rain = 0
KSE2 141627Z 21008G14KT 32/18 A3004 RMK A01 T03240177  RH  042%=      5-min Rain = 0
KSE2 141628Z 20012KT 32/18 A3004 RMK A01 T03220176  RH  042%=      5-min Rain = 0
KSE2 141629Z 18006G11KT 32/18 A3004 RMK A01 T03230176  RH  042%=      5-min Rain = 0
KSE2 141630Z 16008KT 33/18 A3004 RMK A01 T03260175  RH  041%=      5-min Rain = 0
KSE2 141631Z 17007KT 33/17 A3004 RMK A01 T03250174  RH  041%=      5-min Rain = 0
KSE2 141632Z 22009KT 33/18 A3004 RMK A01 T03260175  RH  041%=      5-min Rain = 0
KSE2 141633Z 20010KT 33/17 A3004 RMK A01 T03260174  RH  040%=      5-min Rain = 0
KSE2 141634Z 19008G13KT 33/17 A3004 RMK A01 T03280174  RH  040%=      5-min Rain = 0
KSE2 141635Z 19007KT 33/18 A3004 RMK A01 T03280175  RH  040%=      5-min Rain = 0
KSE2 141636Z 17007G12KT 33/18 A3004 RMK A01 T03310176  RH  040%=      5-min Rain = 0
KSE2 141637Z 19010KT 33/18 A3004 RMK A01 T03300175  RH  040%=      5-min Rain = 0
KSE2 141638Z 17006KT 33/18 A3004 RMK A01 T03300175  RH  040%=      5-min Rain = 0
KSE2 141639Z 19009KT 33/17 A3004 RMK A01 T03300174  RH  039%=      5-min Rain = 0
KSE2 141640Z 18010KT 33/17 A3004 RMK A01 T03290172  RH  039%=      5-min Rain = 0
KSE2 141641Z 17008KT 33/17 A3004 RMK A01 T03280171  RH  039%=      5-min Rain = 0
KSE2 141642Z 19007KT 33/17 A3004 RMK A01 T03300171  RH  039%=      5-min Rain = 0
KSE2 141643Z 20008KT 33/17 A3004 RMK A01 T03300171  RH  039%=      5-min Rain = 0
KSE2 141644Z 21010KT 33/17 A3004 RMK A01 T03300171  RH  039%=      5-min Rain = 0
KSE2 141645Z 21011KT 33/17 A3004 RMK A01 T03300171  RH  039%=      5-min Rain = 0
KSE2 141646Z 21006KT 33/17 A3004 RMK A01 T03270172  RH  040%=      5-min Rain = 0
KSE2 141647Z 21005KT 33/17 A3004 RMK A01 T03270174  RH  040%=      5-min Rain = 0
KSE2 141648Z 21010KT 33/18 A3004 RMK A01 T03330176  RH  039%=      5-min Rain = 0
KSE2 141649Z 21007KT 33/17 A3004 RMK A01 T03320174  RH  039%=      5-min Rain = 0
KSE2 141650Z 20007KT 33/17 A3004 RMK A01 T03300173  RH  039%=      5-min Rain = 0
KSE2 141651Z 18009KT 33/17 A3004 RMK A01 T03280174  RH  040%=      5-min Rain = 0
KSE2 141652Z 18013G18KT 33/17 A3004 RMK A01 T03310172  RH  039%=      5-min Rain = 0
KSE2 141653Z 18011KT 33/17 A3004 RMK A01 T03310171  RH  038%=      5-min Rain = 0
KSE2 141654Z 18009KT 33/17 A3004 RMK A01 T03330173  RH  038%=      5-min Rain = 0
KSE2 141655Z 15009KT 33/17 A3004 RMK A01 T03340171  RH  038%=      5-min Rain = 0
KSE2 141656Z 15008KT 33/17 A3004 RMK A01 T03310171  RH  038%=      5-min Rain = 0
KSE2 141657Z 14006KT 33/17 A3004 RMK A01 T03310171  RH  039%=      5-min Rain = 0
KSE2 141658Z 15007KT 33/17 A3004 RMK A01 T03310170  RH  038%=      5-min Rain = 0
KSE2 141659Z 20006KT 33/17 A3004 RMK A01 T03340171  RH  038%=      5-min Rain = 0
KSE2 141700Z 22007KT 34/17 A3004 RMK A01 T03360171  RH  037%=      5-min Rain = 0
KSE2 141701Z 20007G12KT 33/17 A3004 RMK A01 T03340171  RH  038%=      5-min Rain = 0
KSE2 141702Z 23010KT 33/17 A3004 RMK A01 T03340171  RH  038%=      5-min Rain = 0
KSE2 141703Z 20009KT 33/17 A3004 RMK A01 T03340172  RH  038%=      5-min Rain = 0
KSE2 141704Z 19007KT 33/17 A3004 RMK A01 T03320171  RH  038%=      5-min Rain = 0
KSE2 141705Z 18004KT 33/17 A3004 RMK A01 T03310172  RH  039%=      5-min Rain = 0
KSE2 141706Z 23008KT 33/17 A3004 RMK A01 T03320172  RH  038%=      5-min Rain = 0
KSE2 141707Z 23007KT 34/17 A3004 RMK A01 T03360169  RH  037%=      5-min Rain = 0
KSE2 141708Z 22007KT 34/17 A3004 RMK A01 T03350170  RH  037%=      5-min Rain = 0
KSE2 141709Z 20010KT 34/17 A3004 RMK A01 T03380171  RH  037%=      5-min Rain = 0
KSE2 141710Z 19010KT 34/17 A3004 RMK A01 T03390170  RH  037%=      5-min Rain = 0
KSE2 141711Z 17009KT 34/17 A3004 RMK A01 T03370169  RH  037%=      5-min Rain = 0
KSE2 141712Z 15008KT 34/17 A3004 RMK A01 T03360167  RH  036%=      5-min Rain = 0
KSE2 141713Z 16005KT 33/16 A3004 RMK A01 T03340164  RH  036%=      5-min Rain = 0
KSE2 141714Z 19006KT 33/17 A3004 RMK A01 T03330167  RH  037%=      5-min Rain = 0
KSE2 141715Z 20007KT 34/17 A3004 RMK A01 T03380171  RH  037%=      5-min Rain = 0
KSE2 141716Z 20007KT 34/17 A3004 RMK A01 T03400170  RH  036%=      5-min Rain = 0
KSE2 141717Z 20007KT 34/17 A3004 RMK A01 T03400168  RH  036%=      5-min Rain = 0
KSE2 141718Z 18008KT 34/17 A3004 RMK A01 T03420168  RH  035%=      5-min Rain = 0
KSE2 141719Z 19009KT 34/17 A3004 RMK A01 T03440166  RH  035%=      5-min Rain = 0
KSE2 141720Z 19008KT 34/17 A3004 RMK A01 T03430166  RH  035%=      5-min Rain = 0
KSE2 141721Z 19005KT 34/17 A3004 RMK A01 T03420166  RH  035%=      5-min Rain = 0
KSE2 141722Z 17008KT 34/17 A3004 RMK A01 T03410167  RH  035%=      5-min Rain = 0
KSE2 141723Z 16010KT 34/17 A3004 RMK A01 T03410169  RH  036%=      5-min Rain = 0
KSE2 141724Z 15008KT 34/17 A3004 RMK A01 T03420168  RH  035%=      5-min Rain = 0
KSE2 141725Z 15007KT 34/17 A3004 RMK A01 T03430168  RH  035%=      5-min Rain = 0
KSE2 141726Z 17008KT 34/17 A3004 RMK A01 T03410167  RH  035%=      5-min Rain = 0
KSE2 141727Z 18006KT 34/17 A3004 RMK A01 T03430167  RH  035%=      5-min Rain = 0
KSE2 141728Z 17008KT 35/17 A3003 RMK A01 T03460167  RH  034%=      5-min Rain = 0
KSE2 141729Z 16008KT 34/16 A3004 RMK A01 T03440164  RH  034%=      5-min Rain = 0
KSE2 141730Z 18009KT 34/16 A3003 RMK A01 T03430162  RH  034%=      5-min Rain = 0
KSE2 141731Z 17007KT 34/16 A3003 RMK A01 T03440164  RH  034%=      5-min Rain = 0
KSE2 141732Z 19007KT 35/17 A3003 RMK A01 T03480167  RH  034%=      5-min Rain = 0
KSE2 141733Z 18004KT 35/17 A3003 RMK A01 T03480168  RH  034%=      5-min Rain = 0
KSE2 141734Z 15008KT 35/17 A3003 RMK A01 T03490169  RH  034%=      5-min Rain = 0
KSE2 141735Z 16008G13KT 35/17 A3003 RMK A01 T03450165  RH  034%=      5-min Rain = 0
KSE2 141736Z 17012KT 34/17 A3003 RMK A01 T03420165  RH  035%=      5-min Rain = 0
KSE2 141737Z 17012KT 35/17 A3003 RMK A01 T03450166  RH  035%=      5-min Rain = 0
KSE2 141738Z 16010KT 35/17 A3003 RMK A01 T03480165  RH  034%=      5-min Rain = 0
KSE2 141739Z 16011KT 35/16 A3003 RMK A01 T03500164  RH  033%=      5-min Rain = 0
KSE2 141740Z 16008G14KT 35/16 A3003 RMK A01 T03480162  RH  033%=      5-min Rain = 0
KSE2 141741Z 15010KT 35/16 A3003 RMK A01 T03490161  RH  033%=      5-min Rain = 0
KSE2 141742Z 17006KT 35/16 A3003 RMK A01 T03480160  RH  033%=      5-min Rain = 0
KSE2 141743Z 17004KT 35/16 A3003 RMK A01 T03500162  RH  033%=      5-min Rain = 0
KSE2 141744Z 19007KT 36/16 A3003 RMK A01 T03550162  RH  032%=      5-min Rain = 0
KSE2 141745Z 23009KT 36/16 A3003 RMK A01 T03550162  RH  032%=      5-min Rain = 0
KSE2 141746Z 23006KT 35/16 A3003 RMK A01 T03530163  RH  032%=      5-min Rain = 0
KSE2 141747Z 18008KT 35/16 A3003 RMK A01 T03510164  RH  033%=      5-min Rain = 0
KSE2 141748Z 15008KT 35/17 A3003 RMK A01 T03510166  RH  033%=      5-min Rain = 0
KSE2 141749Z 16010KT 35/17 A3003 RMK A01 T03490166  RH  034%=      5-min Rain = 0
KSE2 141750Z 16008KT 35/17 A3003 RMK A01 T03490166  RH  034%=      5-min Rain = 0
KSE2 141751Z 17007KT 35/17 A3003 RMK A01 T03510166  RH  033%=      5-min Rain = 0
KSE2 141752Z 19008KT 35/17 A3003 RMK A01 T03520167  RH  034%=      5-min Rain = 0
KSE2 141753Z 21007KT 36/16 A3003 RMK A01 T03550164  RH  032%=      5-min Rain = 0
KSE2 141754Z 20007KT 36/16 A3003 RMK A01 T03550159  RH  031%=      5-min Rain = 0
KSE2 141755Z 21005KT 35/16 A3002 RMK A01 T03520162  RH  032%=      5-min Rain = 0
KSE2 141756Z 22006KT 35/16 A3002 RMK A01 T03520162  RH  032%=      5-min Rain = 0
KSE2 141757Z 22005KT 35/16 A3002 RMK A01 T03540164  RH  032%=      5-min Rain = 0
KSE2 141758Z 21004KT 36/17 A3002 RMK A01 T03580165  RH  032%=      5-min Rain = 0
KSE2 141759Z 19004KT 36/16 A3002 RMK A01 T03580164  RH  032%=      5-min Rain = 0
KSE2 141800Z 17009KT 36/16 A3002 RMK A01 T03550163  RH  032%=      5-min Rain = 0
KSE2 141801Z 17007KT 36/16 A3002 RMK A01 T03560162  RH  032%=      5-min Rain = 0
KSE2 141802Z 14008KT 36/16 A3002 RMK A01 T03570159  RH  031%=      5-min Rain = 0
KSE2 141803Z 12010KT 36/16 A3002 RMK A01 T03560155  RH  030%=      5-min Rain = 0
KSE2 141804Z 15009KT 35/16 A3002 RMK A01 T03540157  RH  031%=      5-min Rain = 0
KSE2 141805Z 19006KT 36/16 A3002 RMK A01 T03580161  RH  031%=      5-min Rain = 0
KSE2 141806Z 20009KT 36/16 A3002 RMK A01 T03620163  RH  031%=      5-min Rain = 0
KSE2 141807Z 19011KT 36/16 A3002 RMK A01 T03590161  RH  031%=      5-min Rain = 0
KSE2 141808Z 18009KT 36/16 A3002 RMK A01 T03590157  RH  030%=      5-min Rain = 0
KSE2 141809Z 19010KT 36/16 A3002 RMK A01 T03580158  RH  031%=      5-min Rain = 0
KSE2 141810Z 19011KT 36/16 A3002 RMK A01 T03570161  RH  031%=      5-min Rain = 0
KSE2 141811Z 19011KT 36/16 A3002 RMK A01 T03570161  RH  031%=      5-min Rain = 0
KSE2 141812Z 21006KT 36/16 A3002 RMK A01 T03570161  RH  031%=      5-min Rain = 0
KSE2 141813Z 19007KT 36/16 A3002 RMK A01 T03550162  RH  032%=      5-min Rain = 0
KSE2 141814Z 21007KT 36/16 A3002 RMK A01 T03550160  RH  031%=      5-min Rain = 0
KSE2 141815Z 23005KT 35/16 A3002 RMK A01 T03520159  RH  032%=      5-min Rain = 0
KSE2 141816Z 24006KT 35/16 A3002 RMK A01 T03530160  RH  032%=      5-min Rain = 0
KSE2 141817Z 21007KT 35/16 A3002 RMK A01 T03510159  RH  032%=      5-min Rain = 0
KSE2 141818Z 17007KT 35/16 A3001 RMK A01 T03530158  RH  031%=      5-min Rain = 0
KSE2 141819Z 19008KT 36/16 A3001 RMK A01 T03580157  RH  030%=      5-min Rain = 0
KSE2 141820Z 21007KT 36/16 A3001 RMK A01 T03600155  RH  030%=      5-min Rain = 0
KSE2 141821Z 21007KT 36/15 A3001 RMK A01 T03590154  RH  030%=      5-min Rain = 0
KSE2 141822Z 21007KT 36/15 A3001 RMK A01 T03600154  RH  029%=      5-min Rain = 0
KSE2 141823Z 21009KT 36/16 A3001 RMK A01 T03620155  RH  029%=      5-min Rain = 0
KSE2 141824Z 25005KT 36/15 A3001 RMK A01 T03590154  RH  030%=      5-min Rain = 0
KSE2 141825Z 23005KT 36/16 A3001 RMK A01 T03550155  RH  030%=      5-min Rain = 0
KSE2 141826Z 21005KT 36/16 A3001 RMK A01 T03560158  RH  031%=      5-min Rain = 0
KSE2 141827Z 21006KT 36/16 A3001 RMK A01 T03600158  RH  030%=      5-min Rain = 0
KSE2 141828Z 22008KT 36/16 A3001 RMK A01 T03610159  RH  030%=      5-min Rain = 0
KSE2 141829Z 23008KT 36/16 A3001 RMK A01 T03620157  RH  030%=      5-min Rain = 0
KSE2 141830Z 19009KT 36/16 A3001 RMK A01 T03600157  RH  030%=      5-min Rain = 0
KSE2 141831Z 16009G14KT 36/16 A3001 RMK A01 T03620157  RH  030%=      5-min Rain = 0
KSE2 141832Z 16010KT 36/15 A3001 RMK A01 T03640154  RH  029%=      5-min Rain = 0
KSE2 141833Z 17008KT 36/16 A3001 RMK A01 T03610155  RH  029%=      5-min Rain = 0
KSE2 141834Z 14007G12KT 36/16 A3001 RMK A01 T03590155  RH  030%=      5-min Rain = 0
KSE2 141835Z 14009KT 36/16 A3001 RMK A01 T03570155  RH  030%=      5-min Rain = 0
KSE2 141836Z 16009KT 36/16 A3001 RMK A01 T03600155  RH  030%=      5-min Rain = 0
KSE2 141837Z 17006KT 36/15 A3001 RMK A01 T03610154  RH  029%=      5-min Rain = 0
KSE2 141838Z 16004KT 36/15 A3001 RMK A01 T03610154  RH  029%=      5-min Rain = 0
KSE2 141839Z 14004KT 36/16 A30 RMK A01 T03620157  RH  030%=      5-min Rain = 0
KSE2 141840Z 21007KT 36/16 A3001 RMK A01 T03640155  RH  029%=      5-min Rain = 0
KSE2 141841Z 23008KT 37/16 A30 RMK A01 T03680157  RH  029%=      5-min Rain = 0
KSE2 141842Z 25009KT 37/16 A30 RMK A01 T03670156  RH  029%=      5-min Rain = 0
KSE2 141843Z 23008KT 36/16 A30 RMK A01 T03620156  RH  029%=      5-min Rain = 0
KSE2 141844Z 22006KT 36/16 A30 RMK A01 T03610156  RH  030%=      5-min Rain = 0
KSE2 141845Z 23007KT 36/15 A30 RMK A01 T03620153  RH  029%=      5-min Rain = 0
KSE2 141846Z 23004KT 36/16 A30 RMK A01 T03600155  RH  030%=      5-min Rain = 0
KSE2 141847Z 23004KT 36/16 A30 RMK A01 T03580155  RH  030%=      5-min Rain = 0
KSE2 141848Z 20008KT 36/16 A30 RMK A01 T03570155  RH  030%=      5-min Rain = 0
KSE2 141849Z 17007KT 36/16 A30 RMK A01 T03600158  RH  030%=      5-min Rain = 0
KSE2 141850Z 17009KT 37/15 A30 RMK A01 T03650154  RH  029%=      5-min Rain = 0
KSE2 141851Z 21004KT 37/15 A30 RMK A01 T03650154  RH  029%=      5-min Rain = 0
KSE2 141852Z 24006KT 37/16 A30 RMK A01 T03650156  RH  029%=      5-min Rain = 0
KSE2 141853Z 24007KT 36/16 A30 RMK A01 T03640155  RH  029%=      5-min Rain = 0
KSE2 141854Z 19008G13KT 37/16 A30 RMK A01 T03650157  RH  029%=      5-min Rain = 0
KSE2 141855Z 16008KT 37/15 A30 RMK A01 T03680153  RH  028%=      5-min Rain = 0
KSE2 141856Z 12006KT 37/15 A30 RMK A01 T03650148  RH  028%=      5-min Rain = 0
KSE2 141857Z 13005KT 36/15 A30 RMK A01 T03620149  RH  028%=      5-min Rain = 0
KSE2 141858Z 15007KT 36/15 A30 RMK A01 T03630152  RH  029%=      5-min Rain = 0
KSE2 141859Z 15005KT 36/16 A30 RMK A01 T03640155  RH  029%=      5-min Rain = 0
KSE2 141900Z 15006KT 37/16 A30 RMK A01 T03650156  RH  029%=      5-min Rain = 0
KSE2 141901Z 15009KT 37/16 A30 RMK A01 T03680155  RH  028%=      5-min Rain = 0
KSE2 141902Z 16008G13KT 37/15 A30 RMK A01 T03670151  RH  028%=      5-min Rain = 0
KSE2 141903Z 18007KT 37/15 A30 RMK A01 T03680153  RH  028%=      5-min Rain = 0
KSE2 141904Z 20010KT 37/16 A30 RMK A01 T03700156  RH  028%=      5-min Rain = 0
KSE2 141905Z 18006KT 37/16 A30 RMK A01 T03710157  RH  028%=      5-min Rain = 0
KSE2 141906Z 17007KT 38/16 A30 RMK A01 T03750159  RH  028%=      5-min Rain = 0
KSE2 141907Z 18010KT 38/16 A30 RMK A01 T03760158  RH  028%=      5-min Rain = 0
KSE2 141908Z 19005G11KT 38/16 A30 RMK A01 T03760158  RH  028%=      5-min Rain = 0
KSE2 141909Z 21006KT 38/16 A30 RMK A01 T03750157  RH  028%=      5-min Rain = 0
KSE2 141910Z 19008KT 37/16 A30 RMK A01 T03730156  RH  028%=      5-min Rain = 0
KSE2 141911Z 19008KT 37/15 A30 RMK A01 T03730154  RH  027%=      5-min Rain = 0
KSE2 141912Z 19009KT 37/15 A2999 RMK A01 T03740151  RH  027%=      5-min Rain = 0
KSE2 141913Z 19010KT 37/15 A2999 RMK A01 T03730151  RH  027%=      5-min Rain = 0
KSE2 141914Z 20009KT 37/15 A2999 RMK A01 T03690149  RH  027%=      5-min Rain = 0
KSE2 141915Z 16006KT 37/15 A2999 RMK A01 T03670149  RH  027%=      5-min Rain = 0
KSE2 141916Z 15011KT 37/15 A2999 RMK A01 T03700151  RH  027%=      5-min Rain = 0
KSE2 141917Z 17007KT 37/15 A2999 RMK A01 T03740152  RH  027%=      5-min Rain = 0
KSE2 141918Z 15006KT 38/15 A2999 RMK A01 T03750152  RH  027%=      5-min Rain = 0
KSE2 141919Z 14007KT 37/15 A2999 RMK A01 T03740151  RH  027%=      5-min Rain = 0
KSE2 141920Z 16005G12KT 37/15 A2999 RMK A01 T03690149  RH  027%=      5-min Rain = 0
KSE2 141921Z 16007KT 37/15 A2999 RMK A01 T03700149  RH  027%=      5-min Rain = 0
KSE2 141922Z 14009KT 38/15 A2999 RMK A01 T03770151  RH  026%=      5-min Rain = 0
KSE2 141923Z 15009KT 38/15 A2999 RMK A01 T03760150  RH  026%=      5-min Rain = 0
KSE2 141924Z 19008KT 38/15 A2999 RMK A01 T03750152  RH  027%=      5-min Rain = 0
KSE2 141925Z 18010KT 38/15 A2999 RMK A01 T03750152  RH  027%=      5-min Rain = 0
KSE2 141926Z 18010KT 38/15 A2999 RMK A01 T03750153  RH  027%=      5-min Rain = 0
KSE2 141927Z 18010KT 38/15 A2999 RMK A01 T03750151  RH  027%=      5-min Rain = 0
KSE2 141928Z 19010KT 37/15 A2999 RMK A01 T03740149  RH  026%=      5-min Rain = 0
KSE2 141929Z 20010KT 37/15 A2999 RMK A01 T03730148  RH  026%=      5-min Rain = 0
KSE2 141930Z 20008KT 37/15 A2999 RMK A01 T03710147  RH  027%=      5-min Rain = 0
KSE2 141931Z 21004KT 37/15 A2999 RMK A01 T03700145  RH  026%=      5-min Rain = 0
KSE2 141932Z 24003KT 37/15 A2999 RMK A01 T03700145  RH  026%=      5-min Rain = 0
KSE2 141933Z 22009G17KT 37/14 A2999 RMK A01 T03720143  RH  026%=      5-min Rain = 0
KSE2 141934Z 22011KT 37/14 A2999 RMK A01 T03730143  RH  026%=      5-min Rain = 0
KSE2 141935Z 24009KT 37/14 A2999 RMK A01 T03740143  RH  025%=      5-min Rain = 0
KSE2 141936Z 24009KT 37/14 A2999 RMK A01 T03740143  RH  025%=      5-min Rain = 0
KSE2 141937Z 23007KT 38/14 A2999 RMK A01 T03760143  RH  025%=      5-min Rain = 0
KSE2 141938Z 23007KT 38/15 A2999 RMK A01 T03750148  RH  026%=      5-min Rain = 0
KSE2 141939Z 24006KT 38/15 A2999 RMK A01 T03750148  RH  026%=      5-min Rain = 0
KSE2 141940Z 24005KT 37/14 A2998 RMK A01 T03720144  RH  026%=      5-min Rain = 0
KSE2 141941Z 23006KT 37/15 A2998 RMK A01 T03700149  RH  027%=      5-min Rain = 0
KSE2 141942Z 22006KT 37/15 A2998 RMK A01 T03720149  RH  027%=      5-min Rain = 0
KSE2 141943Z 23006KT 37/15 A2998 RMK A01 T03720149  RH  027%=      5-min Rain = 0
KSE2 141944Z 24004KT 37/15 A2998 RMK A01 T03730150  RH  027%=      5-min Rain = 0
KSE2 141945Z 17006KT 38/15 A2998 RMK A01 T03760150  RH  026%=      5-min Rain = 0
KSE2 141946Z 20006KT 38/15 A2998 RMK A01 T03770150  RH  026%=      5-min Rain = 0
KSE2 141947Z 19009KT 37/15 A2998 RMK A01 T03740148  RH  026%=      5-min Rain = 0
KSE2 141948Z 20007KT 37/15 A2998 RMK A01 T03740150  RH  027%=      5-min Rain = 0
KSE2 141949Z 20005KT 37/15 A2998 RMK A01 T03740149  RH  026%=      5-min Rain = 0
KSE2 141950Z 18006G11KT 37/15 A2998 RMK A01 T03740148  RH  026%=      5-min Rain = 0
KSE2 141951Z 20007KT 38/15 A2998 RMK A01 T03770147  RH  026%=      5-min Rain = 0
KSE2 141952Z 21006KT 38/14 A2998 RMK A01 T03810142  RH  024%=      5-min Rain = 0
KSE2 141953Z 14005KT 38/15 A2998 RMK A01 T03820145  RH  025%=      5-min Rain = 0
KSE2 141954Z 17006KT 38/15 A2998 RMK A01 T03840145  RH  024%=      5-min Rain = 0
KSE2 141955Z 16004KT 38/15 A2998 RMK A01 T03830145  RH  025%=      5-min Rain = 0
KSE2 141956Z 17004KT 38/15 A2998 RMK A01 T03840147  RH  025%=      5-min Rain = 0
KSE2 141957Z 23004KT 38/14 A2998 RMK A01 T03840144  RH  024%=      5-min Rain = 0
KSE2 141958Z 20005KT 38/14 A2997 RMK A01 T03840143  RH  024%=      5-min Rain = 0
KSE2 141959Z 24006KT 38/15 A2997 RMK A01 T03830145  RH  025%=      5-min Rain = 0
KSE2 142000Z 26005KT 38/15 A2997 RMK A01 T03810146  RH  025%=      5-min Rain = 0
KSE2 142001Z 24003KT 38/15 A2997 RMK A01 T03810148  RH  025%=      5-min Rain = 0
KSE2 142002Z 22004KT 38/15 A2997 RMK A01 T03840147  RH  025%=      5-min Rain = 0
KSE2 142003Z 19006KT 38/15 A2997 RMK A01 T03830147  RH  025%=      5-min Rain = 0
KSE2 142004Z 21010KT 38/15 A2997 RMK A01 T03830149  RH  025%=      5-min Rain = 0
KSE2 142005Z 18009KT 38/15 A2997 RMK A01 T03840149  RH  025%=      5-min Rain = 0
KSE2 142006Z 18010KT 39/15 A2997 RMK A01 T03860149  RH  025%=      5-min Rain = 0
KSE2 142007Z 17008KT 39/15 A2997 RMK A01 T03870149  RH  025%=      5-min Rain = 0
KSE2 142008Z 16008KT 39/15 A2997 RMK A01 T03870147  RH  024%=      5-min Rain = 0
KSE2 142009Z 14009KT 39/15 A2997 RMK A01 T03870145  RH  024%=      5-min Rain = 0
KSE2 142010Z 14006KT 38/14 A2997 RMK A01 T03840144  RH  024%=      5-min Rain = 0
KSE2 142011Z 13007KT 38/14 A2997 RMK A01 T03820144  RH  024%=      5-min Rain = 0
KSE2 142012Z 14007G13KT 38/15 A2997 RMK A01 T03820146  RH  025%=      5-min Rain = 0
KSE2 142013Z 17009KT 38/15 A2997 RMK A01 T03830147  RH  025%=      5-min Rain = 0
KSE2 142014Z 23009KT 39/15 A2997 RMK A01 T03870145  RH  024%=      5-min Rain = 0
KSE2 142015Z 22011KT 39/15 A2997 RMK A01 T03880145  RH  024%=      5-min Rain = 0
KSE2 142016Z 23011KT 38/15 A2997 RMK A01 T03820146  RH  025%=      5-min Rain = 0
KSE2 142017Z 24009KT 38/15 A2997 RMK A01 T03800146  RH  025%=      5-min Rain = 0
KSE2 142018Z 22004KT 38/14 A2996 RMK A01 T03770144  RH  025%=      5-min Rain = 0
KSE2 142019Z 22006KT 38/15 A2997 RMK A01 T03760146  RH  026%=      5-min Rain = 0
KSE2 142020Z 20007KT 38/15 A2996 RMK A01 T03800145  RH  025%=      5-min Rain = 0
KSE2 142021Z 23006KT 38/14 A2996 RMK A01 T03800143  RH  025%=      5-min Rain = 0
KSE2 142022Z 22012KT 38/14 A2996 RMK A01 T03810144  RH  025%=      5-min Rain = 0
KSE2 142023Z 20011KT 38/15 A2996 RMK A01 T03830145  RH  024%=      5-min Rain = 0
KSE2 142024Z 20009KT 39/14 A2996 RMK A01 T03850144  RH  024%=      5-min Rain = 0
KSE2 142025Z 21007KT 39/14 A2996 RMK A01 T03850143  RH  024%=      5-min Rain = 0
KSE2 142026Z 21005KT 39/14 A2996 RMK A01 T03850144  RH  024%=      5-min Rain = 0
KSE2 142027Z 22009KT 39/14 A2996 RMK A01 T03870142  RH  023%=      5-min Rain = 0
KSE2 142028Z 23006KT 39/14 A2996 RMK A01 T03850140  RH  023%=      5-min Rain = 0
KSE2 142029Z 24007KT 38/14 A2996 RMK A01 T03840141  RH  024%=      5-min Rain = 0
KSE2 142030Z 24008KT 39/14 A2996 RMK A01 T03860138  RH  023%=      5-min Rain = 0
KSE2 142031Z 23006KT 38/14 A2996 RMK A01 T03840138  RH  023%=      5-min Rain = 0
KSE2 142032Z 20005KT 38/14 A2996 RMK A01 T03840139  RH  023%=      5-min Rain = 0
KSE2 142033Z 16002KT 38/14 A2996 RMK A01 T03810136  RH  023%=      5-min Rain = 0
KSE2 142034Z 17003KT 38/14 A2996 RMK A01 T03800138  RH  024%=      5-min Rain = 0
KSE2 142035Z 24004KT 38/14 A2996 RMK A01 T03820139  RH  024%=      5-min Rain = 0
KSE2 142036Z 18004KT 39/14 A2996 RMK A01 T03850139  RH  023%=      5-min Rain = 0
KSE2 142037Z 14002KT 39/14 A2996 RMK A01 T03880139  RH  023%=      5-min Rain = 0
KSE2 142038Z 16004KT 39/14 A2996 RMK A01 T03920137  RH  022%=      5-min Rain = 0
KSE2 142039Z 19007KT 39/14 A2996 RMK A01 T03920137  RH  022%=      5-min Rain = 0
KSE2 142040Z 16006KT 39/14 A2996 RMK A01 T03900135  RH  022%=      5-min Rain = 0
KSE2 142041Z 15006G11KT 39/14 A2996 RMK A01 T03910136  RH  022%=      5-min Rain = 0
KSE2 142042Z 17005KT 39/14 A2996 RMK A01 T03930136  RH  022%=      5-min Rain = 0
KSE2 142043Z 18006KT 39/14 A2996 RMK A01 T03930138  RH  022%=      5-min Rain = 0
KSE2 142044Z 21007KT 39/14 A2996 RMK A01 T03930141  RH  023%=      5-min Rain = 0
KSE2 142045Z 21007KT 39/14 A2996 RMK A01 T03910141  RH  023%=      5-min Rain = 0
KSE2 142046Z 22004KT 39/14 A2995 RMK A01 T03910143  RH  023%=      5-min Rain = 0
KSE2 142047Z 20004KT 39/14 A2995 RMK A01 T03940143  RH  023%=      5-min Rain = 0
KSE2 142048Z 15002KT 39/14 A2995 RMK A01 T03940141  RH  023%=      5-min Rain = 0
KSE2 142049Z 17005G11KT 39/14 A2995 RMK A01 T03930141  RH  023%=      5-min Rain = 0
KSE2 142050Z 19009KT 39/14 A2995 RMK A01 T03920141  RH  023%=      5-min Rain = 0
KSE2 142051Z 20009KT 39/14 A2995 RMK A01 T03910141  RH  023%=      5-min Rain = 0
KSE2 142052Z 22010KT 39/14 A2995 RMK A01 T03910140  RH  023%=      5-min Rain = 0
KSE2 142053Z 20009KT 39/14 A2995 RMK A01 T03870139  RH  023%=      5-min Rain = 0
KSE2 142054Z 23007KT 39/14 A2995 RMK A01 T03870142  RH  023%=      5-min Rain = 0
KSE2 142055Z 23007KT 39/14 A2995 RMK A01 T03890142  RH  023%=      5-min Rain = 0
KSE2 142056Z 24009KT 39/14 A2995 RMK A01 T03910141  RH  023%=      5-min Rain = 0
KSE2 142057Z 25008KT 39/14 A2995 RMK A01 T03880139  RH  023%=      5-min Rain = 0
KSE2 142058Z 22005KT 39/14 A2995 RMK A01 T03850139  RH  023%=      5-min Rain = 0
KSE2 142059Z 23003KT 39/14 A2995 RMK A01 T03870140  RH  023%=      5-min Rain = 0
KSE2 142100Z 17006KT 39/14 A2995 RMK A01 T03910141  RH  023%=      5-min Rain = 0
KSE2 142101Z 14006KT 39/14 A2995 RMK A01 T03890137  RH  023%=      5-min Rain = 0
KSE2 142102Z 19006KT 38/14 A2995 RMK A01 T03840137  RH  023%=      5-min Rain = 0
KSE2 142103Z 15004KT 39/14 A2995 RMK A01 T03870137  RH  023%=      5-min Rain = 0
KSE2 142104Z 12005KT 39/13 A2995 RMK A01 T03880134  RH  022%=      5-min Rain = 0
KSE2 142105Z 12006KT 39/13 A2995 RMK A01 T03860132  RH  022%=      5-min Rain = 0
KSE2 142106Z 13010KT 39/13 A2994 RMK A01 T03900132  RH  022%=      5-min Rain = 0
KSE2 142107Z 13008KT 39/13 A2994 RMK A01 T03900128  RH  021%=      5-min Rain = 0
KSE2 142108Z 13010KT 39/13 A2994 RMK A01 T03900128  RH  021%=      5-min Rain = 0
KSE2 142109Z 14012KT 39/13 A2994 RMK A01 T03900128  RH  021%=      5-min Rain = 0
KSE2 142110Z 16008KT 39/13 A2994 RMK A01 T03900125  RH  021%=      5-min Rain = 0
KSE2 142111Z 13008KT 39/12 A2994 RMK A01 T03890123  RH  021%=      5-min Rain = 0
KSE2 142112Z 11009KT 39/12 A2994 RMK A01 T03870116  RH  020%=      5-min Rain = 0
KSE2 142113Z 13009KT 39/12 A2994 RMK A01 T03860120  RH  021%=      5-min Rain = 0
KSE2 142114Z 14009KT 39/12 A2994 RMK A01 T03870124  RH  021%=      5-min Rain = 0
KSE2 142115Z 14008KT 39/13 A2994 RMK A01 T03910126  RH  021%=      5-min Rain = 0
KSE2 142116Z 17009KT 39/13 A2994 RMK A01 T03940131  RH  021%=      5-min Rain = 0
KSE2 142117Z 15007KT 39/13 A2994 RMK A01 T03940134  RH  021%=      5-min Rain = 0
KSE2 142118Z 16008KT 39/13 A2994 RMK A01 T03900132  RH  022%=      5-min Rain = 0
KSE2 142119Z 15007KT 39/13 A2994 RMK A01 T03870132  RH  022%=      5-min Rain = 0
KSE2 142120Z 17008KT 39/13 A2994 RMK A01 T03880134  RH  022%=      5-min Rain = 0
KSE2 142121Z 19007KT 39/13 A2994 RMK A01 T03890134  RH  022%=      5-min Rain = 0
KSE2 142122Z 18008KT 39/14 A2994 RMK A01 T03920136  RH  022%=      5-min Rain = 0
KSE2 142123Z 16005KT 40/14 A2994 RMK A01 T03970137  RH  022%=      5-min Rain = 0
KSE2 142124Z 22008KT 40/14 A2994 RMK A01 T04010137  RH  021%=      5-min Rain = 0
KSE2 142125Z 20005KT 40/14 A2994 RMK A01 T03960135  RH  021%=      5-min Rain = 0
KSE2 142126Z 18009KT 40/14 A2994 RMK A01 T03950136  RH  022%=      5-min Rain = 0
KSE2 142127Z 19007KT 39/13 A2994 RMK A01 T03930133  RH  021%=      5-min Rain = 0
KSE2 142128Z 20007KT 39/13 A2994 RMK A01 T03900134  RH  022%=      5-min Rain = 0
KSE2 142129Z 20008KT 39/13 A2994 RMK A01 T03910133  RH  022%=      5-min Rain = 0
KSE2 142130Z 17006KT 39/13 A2994 RMK A01 T03910134  RH  022%=      5-min Rain = 0
KSE2 142131Z 21008KT 39/13 A2994 RMK A01 T03930132  RH  021%=      5-min Rain = 0
KSE2 142132Z 16009KT 39/13 A2994 RMK A01 T03920129  RH  021%=      5-min Rain = 0
KSE2 142133Z 15010KT 39/12 A2994 RMK A01 T03910122  RH  020%=      5-min Rain = 0
KSE2 142134Z 16008KT 39/12 A2994 RMK A01 T03890122  RH  020%=      5-min Rain = 0
KSE2 142135Z 13008KT 39/12 A2994 RMK A01 T03890123  RH  021%=      5-min Rain = 0
KSE2 142136Z 13010KT 39/12 A2994 RMK A01 T03890118  RH  020%=      5-min Rain = 0
KSE2 142137Z 12009KT 39/12 A2994 RMK A01 T03870122  RH  021%=      5-min Rain = 0
KSE2 142138Z 12007KT 39/13 A2994 RMK A01 T03850126  RH  021%=      5-min Rain = 0
KSE2 142139Z 11006KT 39/13 A2994 RMK A01 T03850127  RH  021%=      5-min Rain = 0
KSE2 142140Z 13005KT 39/13 A2994 RMK A01 T03850125  RH  021%=      5-min Rain = 0
KSE2 142141Z 14005KT 38/12 A2994 RMK A01 T03820123  RH  021%=      5-min Rain = 0
KSE2 142142Z 15007KT 38/13 A2994 RMK A01 T03830125  RH  021%=      5-min Rain = 0
KSE2 142143Z 19009KT 39/13 A2994 RMK A01 T03880128  RH  021%=      5-min Rain = 0
KSE2 142144Z 20009KT 39/13 A2994 RMK A01 T03910128  RH  021%=      5-min Rain = 0
KSE2 142145Z 19009KT 39/13 A2994 RMK A01 T03930128  RH  021%=      5-min Rain = 0
KSE2 142146Z 19009KT 40/13 A2994 RMK A01 T03950127  RH  020%=      5-min Rain = 0
KSE2 142147Z 18005KT 39/13 A2994 RMK A01 T03920125  RH  020%=      5-min Rain = 0
KSE2 142148Z 19004KT 39/13 A2994 RMK A01 T03910126  RH  021%=      5-min Rain = 0
KSE2 142149Z 21006KT 39/13 A2994 RMK A01 T03910126  RH  021%=      5-min Rain = 0
KSE2 142150Z 20009KT 39/13 A2993 RMK A01 T03900128  RH  021%=      5-min Rain = 0
KSE2 142151Z 20006KT 39/13 A2994 RMK A01 T03910129  RH  021%=      5-min Rain = 0
KSE2 142152Z 19006KT 39/13 A2993 RMK A01 T03910127  RH  021%=      5-min Rain = 0
KSE2 142153Z 20007KT 39/13 A2993 RMK A01 T03930126  RH  020%=      5-min Rain = 0
KSE2 142154Z 18005KT 39/12 A2993 RMK A01 T03940124  RH  020%=      5-min Rain = 0
KSE2 142155Z 19006KT 40/12 A2993 RMK A01 T03950122  RH  020%=      5-min Rain = 0
KSE2 142156Z 21006KT 39/12 A2993 RMK A01 T03940122  RH  020%=      5-min Rain = 0
KSE2 142157Z 21006KT 39/12 A2993 RMK A01 T03920123  RH  020%=      5-min Rain = 0
KSE2 142158Z 19004KT 39/13 A2993 RMK A01 T03920125  RH  021%=      5-min Rain = 0
KSE2 142159Z 20003KT 39/12 A2993 RMK A01 T03920124  RH  020%=      5-min Rain = 0
KSE2 142200Z 16005KT 39/12 A2993 RMK A01 T03920123  RH  020%=      5-min Rain = 0
KSE2 142201Z 17006KT 39/12 A2993 RMK A01 T03920123  RH  020%=      5-min Rain = 0
KSE2 142202Z 18010KT 39/12 A2993 RMK A01 T03920121  RH  020%=      5-min Rain = 0
KSE2 142203Z 19006KT 39/12 A2993 RMK A01 T03910119  RH  020%=      5-min Rain = 0
KSE2 142204Z 18005KT 39/12 A2993 RMK A01 T03920118  RH  020%=      5-min Rain = 0
KSE2 142205Z 19008G14KT 39/12 A2993 RMK A01 T03930118  RH  019%=      5-min Rain = 0
KSE2 142206Z 18011KT 39/12 A2993 RMK A01 T03940120  RH  020%=      5-min Rain = 0
KSE2 142207Z 19009KT 39/12 A2993 RMK A01 T03920121  RH  020%=      5-min Rain = 0
KSE2 142208Z 18007KT 39/12 A2993 RMK A01 T03910122  RH  020%=      5-min Rain = 0
KSE2 142209Z 19008KT 39/12 A2993 RMK A01 T03910122  RH  020%=      5-min Rain = 0
KSE2 142210Z 19009KT 39/12 A2993 RMK A01 T03910117  RH  020%=      5-min Rain = 0
KSE2 142211Z 20006KT 39/12 A2993 RMK A01 T03910117  RH  019%=      5-min Rain = 0
KSE2 142212Z 20007KT 39/12 A2993 RMK A01 T03900116  RH  019%=      5-min Rain = 0
KSE2 142213Z 21006KT 39/11 A2993 RMK A01 T03890113  RH  019%=      5-min Rain = 0
KSE2 142214Z 16006KT 39/12 A2993 RMK A01 T03880116  RH  020%=      5-min Rain = 0
KSE2 142215Z 12004KT 39/12 A2993 RMK A01 T03890121  RH  020%=      5-min Rain = 0
KSE2 142216Z 11003KT 39/12 A2993 RMK A01 T03870122  RH  021%=      5-min Rain = 0
KSE2 142217Z 19004KT 39/12 A2993 RMK A01 T03850121  RH  021%=      5-min Rain = 0
KSE2 142218Z 19008KT 39/12 A2993 RMK A01 T03850122  RH  021%=      5-min Rain = 0
KSE2 142219Z 19009KT 39/12 A2993 RMK A01 T03880121  RH  020%=      5-min Rain = 0
KSE2 142220Z 21007KT 39/12 A2993 RMK A01 T03890121  RH  020%=      5-min Rain = 0
KSE2 142221Z 22007KT 39/12 A2993 RMK A01 T03910120  RH  020%=      5-min Rain = 0
KSE2 142222Z 20008KT 39/12 A2993 RMK A01 T03920123  RH  020%=      5-min Rain = 0
KSE2 142223Z 20008KT 39/12 A2993 RMK A01 T03910121  RH  020%=      5-min Rain = 0
KSE2 142224Z 19004KT 39/12 A2993 RMK A01 T03880118  RH  020%=      5-min Rain = 0
KSE2 142225Z 19004KT 39/12 A2993 RMK A01 T03880120  RH  020%=      5-min Rain = 0
KSE2 142226Z 20004KT 39/12 A2993 RMK A01 T03880120  RH  020%=      5-min Rain = 0
KSE2 142227Z 18008KT 39/12 A2993 RMK A01 T03870122  RH  021%=      5-min Rain = 0
KSE2 142228Z 17008KT 39/12 A2993 RMK A01 T03890123  RH  021%=      5-min Rain = 0
KSE2 142229Z 19010KT 39/12 A2993 RMK A01 T03880123  RH  021%=      5-min Rain = 0
KSE2 142230Z 16010KT 39/12 A2993 RMK A01 T03900123  RH  020%=      5-min Rain = 0
KSE2 142231Z 16009KT 39/12 A2993 RMK A01 T03900122  RH  020%=      5-min Rain = 0
KSE2 142232Z 19008KT 39/12 A2993 RMK A01 T03900124  RH  020%=      5-min Rain = 0
KSE2 142233Z 18008KT 39/12 A2993 RMK A01 T03900124  RH  021%=      5-min Rain = 0
KSE2 142234Z 17006KT 39/12 A2993 RMK A01 T03890124  RH  021%=      5-min Rain = 0
KSE2 142235Z 16009KT 39/12 A2993 RMK A01 T03910123  RH  020%=      5-min Rain = 0
KSE2 142236Z 17008KT 39/12 A2993 RMK A01 T03910121  RH  020%=      5-min Rain = 0
KSE2 142237Z 18009KT 39/12 A2993 RMK A01 T03900119  RH  020%=      5-min Rain = 0
KSE2 142238Z 18008KT 39/12 A2993 RMK A01 T03900118  RH  020%=      5-min Rain = 0
KSE2 142239Z 19008KT 39/12 A2993 RMK A01 T03900116  RH  019%=      5-min Rain = 0
KSE2 142240Z 19007KT 39/12 A2993 RMK A01 T03890118  RH  020%=      5-min Rain = 0
KSE2 142241Z 18003KT 39/12 A2993 RMK A01 T03860118  RH  020%=      5-min Rain = 0
KSE2 142242Z 19002KT 39/12 A2993 RMK A01 T03860119  RH  020%=      5-min Rain = 0
KSE2 142243Z 20005KT 39/12 A2993 RMK A01 T03880119  RH  020%=      5-min Rain = 0
KSE2 142244Z 16006KT 39/12 A2992 RMK A01 T03890122  RH  020%=      5-min Rain = 0
KSE2 142245Z 19006KT 39/12 A2992 RMK A01 T03880120  RH  020%=      5-min Rain = 0
KSE2 142246Z 19003KT 39/12 A2992 RMK A01 T03870121  RH  021%=      5-min Rain = 0
KSE2 142247Z 21002KT 39/12 A2992 RMK A01 T03880121  RH  020%=      5-min Rain = 0
KSE2 142248Z 18007G12KT 39/12 A2992 RMK A01 T03900122  RH  020%=      5-min Rain = 0
KSE2 142249Z 18008KT 39/12 A2992 RMK A01 T03930124  RH  020%=      5-min Rain = 0
KSE2 142250Z 20010KT 39/12 A2992 RMK A01 T03930124  RH  020%=      5-min Rain = 0
KSE2 142251Z 18007KT 39/12 A2993 RMK A01 T03920124  RH  020%=      5-min Rain = 0
KSE2 142252Z 18006KT 39/12 A2993 RMK A01 T03920124  RH  020%=      5-min Rain = 0
KSE2 142253Z 19006KT 39/12 A2992 RMK A01 T03920124  RH  020%=      5-min Rain = 0
KSE2 142254Z 17007KT 39/12 A2992 RMK A01 T03910123  RH  020%=      5-min Rain = 0
KSE2 142255Z 15006KT 39/12 A2992 RMK A01 T03890123  RH  021%=      5-min Rain = 0
KSE2 142256Z 17009KT 39/12 A2992 RMK A01 T03880123  RH  021%=      5-min Rain = 0
KSE2 142257Z 17009KT 39/12 A2992 RMK A01 T03870124  RH  021%=      5-min Rain = 0
KSE2 142258Z 16008KT 39/12 A2992 RMK A01 T03850124  RH  021%=      5-min Rain = 0
KSE2 142259Z 15010KT 38/12 A2992 RMK A01 T03840124  RH  021%=      5-min Rain = 0
KSE2 142300Z 13008KT 39/12 A2992 RMK A01 T03850124  RH  021%=      5-min Rain = 0
KSE2 142301Z 15010KT 39/13 A2992 RMK A01 T03860125  RH  021%=      5-min Rain = 0
KSE2 142302Z 16009KT 39/13 A2992 RMK A01 T03890125  RH  021%=      5-min Rain = 0
KSE2 142303Z 13008KT 39/13 A2992 RMK A01 T03900125  RH  021%=      5-min Rain = 0
KSE2 142304Z 20008G13KT 39/12 A2993 RMK A01 T03890123  RH  021%=      5-min Rain = 0
KSE2 142305Z 21007KT 39/12 A2992 RMK A01 T03880122  RH  021%=      5-min Rain = 0
KSE2 142306Z 21007KT 39/12 A2992 RMK A01 T03880123  RH  021%=      5-min Rain = 0
KSE2 142307Z 18008KT 39/13 A2992 RMK A01 T03890125  RH  021%=      5-min Rain = 0
KSE2 142308Z 18006KT 39/12 A2992 RMK A01 T03890123  RH  021%=      5-min Rain = 0
KSE2 142309Z 18005KT 39/12 A2992 RMK A01 T03870123  RH  021%=      5-min Rain = 0
KSE2 142310Z 18007KT 39/12 A2992 RMK A01 T03890122  RH  020%=      5-min Rain = 0
KSE2 142311Z 21007KT 39/12 A2992 RMK A01 T03890122  RH  020%=      5-min Rain = 0
KSE2 142312Z 21006KT 39/12 A2992 RMK A01 T03880122  RH  020%=      5-min Rain = 0
KSE2 142313Z 20007KT 39/12 A2992 RMK A01 T03890123  RH  020%=      5-min Rain = 0
KSE2 142314Z 16008KT 39/12 A2992 RMK A01 T03900122  RH  020%=      5-min Rain = 0
KSE2 142315Z 17006KT 39/12 A2992 RMK A01 T03890122  RH  020%=      5-min Rain = 0
KSE2 142316Z 15006KT 39/12 A2992 RMK A01 T03890123  RH  021%=      5-min Rain = 0
KSE2 142317Z 14007KT 39/12 A2992 RMK A01 T03880124  RH  021%=      5-min Rain = 0
KSE2 142318Z 14006KT 39/13 A2992 RMK A01 T03870125  RH  021%=      5-min Rain = 0
KSE2 142319Z 15008KT 39/13 A2992 RMK A01 T03880125  RH  021%=      5-min Rain = 0
KSE2 142320Z 19010KT 39/12 A2992 RMK A01 T03890124  RH  021%=      5-min Rain = 0
KSE2 142321Z 19009KT 39/12 A2992 RMK A01 T03890120  RH  020%=      5-min Rain = 0
KSE2 142322Z 19009KT 39/12 A2992 RMK A01 T03890119  RH  020%=      5-min Rain = 0
KSE2 142323Z 18008KT 39/12 A2992 RMK A01 T03880118  RH  020%=      5-min Rain = 0
KSE2 142324Z 17006KT 39/12 A2992 RMK A01 T03870116  RH  020%=      5-min Rain = 0
KSE2 142325Z 18007KT 39/12 A2992 RMK A01 T03850118  RH  020%=      5-min Rain = 0
KSE2 142326Z 18008KT 39/12 A2992 RMK A01 T03860120  RH  021%=      5-min Rain = 0
KSE2 142327Z 18005KT 39/12 A2992 RMK A01 T03870122  RH  021%=      5-min Rain = 0
KSE2 142328Z 20007G14KT 39/12 A2992 RMK A01 T03870124  RH  021%=      5-min Rain = 0
KSE2 142329Z 16011KT 39/13 A2992 RMK A01 T03870129  RH  022%=      5-min Rain = 0
KSE2 142330Z 15008KT 39/13 A2992 RMK A01 T03860130  RH  022%=      5-min Rain = 0
KSE2 142331Z 17010KT 39/13 A2992 RMK A01 T03850131  RH  022%=      5-min Rain = 0
KSE2 142332Z 17012KT 39/13 A2992 RMK A01 T03850131  RH  022%=      5-min Rain = 0
KSE2 142333Z 17010KT 38/13 A2992 RMK A01 T03830129  RH  022%=      5-min Rain = 0
KSE2 142334Z 15007KT 38/13 A2992 RMK A01 T03810129  RH  022%=      5-min Rain = 0
KSE2 142335Z 17005KT 38/13 A2992 RMK A01 T03810129  RH  022%=      5-min Rain = 0
KSE2 142336Z 15009KT 38/13 A2992 RMK A01 T03820130  RH  022%=      5-min Rain = 0
KSE2 142337Z 16007KT 38/13 A2992 RMK A01 T03830129  RH  022%=      5-min Rain = 0
KSE2 142338Z 17007KT 38/13 A2992 RMK A01 T03830129  RH  022%=      5-min Rain = 0
KSE2 142339Z 16009KT 38/13 A2992 RMK A01 T03840130  RH  022%=      5-min Rain = 0
KSE2 142340Z 16008KT 38/13 A2992 RMK A01 T03830131  RH  022%=      5-min Rain = 0
KSE2 142341Z 14009KT 38/13 A2992 RMK A01 T03820130  RH  022%=      5-min Rain = 0
KSE2 142342Z 17007KT 38/13 A2992 RMK A01 T03820130  RH  022%=      5-min Rain = 0
KSE2 142343Z 20008KT 38/13 A2992 RMK A01 T03810129  RH  022%=      5-min Rain = 0
KSE2 142344Z 19008KT 38/13 A2992 RMK A01 T03820127  RH  022%=      5-min Rain = 0
KSE2 142345Z 18008KT 38/13 A2992 RMK A01 T03820125  RH  022%=      5-min Rain = 0
KSE2 142346Z 19009KT 38/13 A2992 RMK A01 T03820126  RH  022%=      5-min Rain = 0
KSE2 142347Z 20007KT 38/13 A2992 RMK A01 T03820127  RH  022%=      5-min Rain = 0
KSE2 142348Z 21008KT 38/13 A2992 RMK A01 T03820128  RH  022%=      5-min Rain = 0
KSE2 142349Z 21007KT 38/13 A2992 RMK A01 T03820129  RH  022%=      5-min Rain = 0
KSE2 142350Z 20008G13KT 38/13 A2992 RMK A01 T03810130  RH  022%=      5-min Rain = 0
KSE2 142351Z 19012KT 38/13 A2991 RMK A01 T03810129  RH  022%=      5-min Rain = 0
KSE2 142352Z 18010KT 38/13 A2992 RMK A01 T03800129  RH  022%=      5-min Rain = 0
KSE2 142353Z 17009KT 38/13 A2992 RMK A01 T03790129  RH  022%=      5-min Rain = 0
KSE2 142354Z 17010KT 38/13 A2992 RMK A01 T03790129  RH  023%=      5-min Rain = 0
KSE2 142355Z 17010KT 38/13 A2992 RMK A01 T03790129  RH  023%=      5-min Rain = 0
KSE2 142356Z 16011KT 38/13 A2992 RMK A01 T03780128  RH  023%=      5-min Rain = 0
KSE2 142357Z 16008KT 38/13 A2992 RMK A01 T03770128  RH  023%=      5-min Rain = 0
KSE2 142358Z 16005KT 38/13 A2992 RMK A01 T03770129  RH  023%=      5-min Rain = 0
KSE2 142359Z 16006KT 38/13 A2992 RMK A01 T03770129  RH  023%=      5-min Rain = 0
KSE2 150000Z 16007KT 38/13 A2992 RMK A01 T03770129  RH  023%=      5-min Rain = 0
KSE2 150001Z 20007KT 38/13 A2992 RMK A01 T03770130  RH  023%=      5-min Rain = 0
KSE2 150002Z 20007KT 38/13 A2992 RMK A01 T03780131  RH  023%=      5-min Rain = 0
KSE2 150003Z 19008KT 38/13 A2992 RMK A01 T03790131  RH  023%=      5-min Rain = 0
KSE2 150004Z 18010KT 38/13 A2992 RMK A01 T03790131  RH  023%=      5-min Rain = 0
KSE2 150005Z 18008KT 38/13 A2992 RMK A01 T03780132  RH  023%=      5-min Rain = 0
KSE2 150006Z 19005KT 38/13 A2992 RMK A01 T03770132  RH  023%=      5-min Rain = 0
KSE2 150007Z 19008KT 38/13 A2992 RMK A01 T03770133  RH  023%=      5-min Rain = 0
KSE2 150008Z 19009KT 38/13 A2992 RMK A01 T03780132  RH  023%=      5-min Rain = 0
KSE2 150009Z 18010KT 38/13 A2992 RMK A01 T03770131  RH  023%=      5-min Rain = 0
KSE2 150010Z 17010KT 38/13 A2992 RMK A01 T03760132  RH  023%=      5-min Rain = 0
KSE2 150011Z 17006KT 38/13 A2992 RMK A01 T03750133  RH  024%=      5-min Rain = 0
KSE2 150012Z 19006KT 38/13 A2992 RMK A01 T03750133  RH  024%=      5-min Rain = 0
KSE2 150013Z 17007KT 38/13 A2992 RMK A01 T03750134  RH  024%=      5-min Rain = 0
KSE2 150014Z 16008KT 38/13 A2992 RMK A01 T03750134  RH  024%=      5-min Rain = 0
KSE2 150015Z 18010KT 38/14 A2992 RMK A01 T03750136  RH  024%=      5-min Rain = 0
KSE2 150016Z 18009KT 38/14 A2992 RMK A01 T03750139  RH  025%=      5-min Rain = 0
KSE2 150017Z 18006KT 37/14 A2992 RMK A01 T03740140  RH  025%=      5-min Rain = 0
KSE2 150018Z 17006KT 37/14 A2992 RMK A01 T03730140  RH  025%=      5-min Rain = 0
KSE2 150019Z 18006KT 37/14 A2992 RMK A01 T03740141  RH  025%=      5-min Rain = 0
KSE2 150020Z 17007KT 37/14 A2992 RMK A01 T03730141  RH  025%=      5-min Rain = 0
KSE2 150021Z 19009KT 37/14 A2992 RMK A01 T03730140  RH  025%=      5-min Rain = 0
KSE2 150022Z 19007KT 37/14 A2992 RMK A01 T03730140  RH  025%=      5-min Rain = 0
KSE2 150023Z 18008KT 37/14 A2992 RMK A01 T03720139  RH  025%=      5-min Rain = 0
KSE2 150024Z 17008KT 37/14 A2992 RMK A01 T03720140  RH  025%=      5-min Rain = 0
KSE2 150025Z 17008KT 37/14 A2992 RMK A01 T03720140  RH  025%=      5-min Rain = 0
KSE2 150026Z 17008KT 37/14 A2992 RMK A01 T03720140  RH  025%=      5-min Rain = 0
KSE2 150027Z 18008KT 37/14 A2992 RMK A01 T03710140  RH  025%=      5-min Rain = 0
KSE2 150028Z 17007KT 37/14 A2992 RMK A01 T03700140  RH  025%=      5-min Rain = 0
KSE2 150029Z 18005G10KT 37/14 A2992 RMK A01 T03700140  RH  025%=      5-min Rain = 0
KSE2 150030Z 15007G12KT 37/14 A2992 RMK A01 T03700140  RH  025%=      5-min Rain = 0
KSE2 150031Z 17007KT 37/14 A2992 RMK A01 T03700139  RH  025%=      5-min Rain = 0
KSE2 150032Z 19007KT 37/14 A2992 RMK A01 T03700138  RH  025%=      5-min Rain = 0
KSE2 150033Z 17009KT 37/14 A2992 RMK A01 T03690137  RH  025%=      5-min Rain = 0
KSE2 150034Z 17010G15KT 37/14 A2992 RMK A01 T03690137  RH  025%=      5-min Rain = 0
KSE2 150035Z 18008KT 37/14 A2992 RMK A01 T03680136  RH  025%=      5-min Rain = 0
KSE2 150036Z 18007KT 37/14 A2992 RMK A01 T03680135  RH  025%=      5-min Rain = 0
KSE2 150037Z 20008KT 37/14 A2992 RMK A01 T03680135  RH  025%=      5-min Rain = 0
KSE2 150038Z 18008G14KT 37/14 A2992 RMK A01 T03680135  RH  025%=      5-min Rain = 0
KSE2 150039Z 19009KT 37/14 A2992 RMK A01 T03680135  RH  025%=      5-min Rain = 0
KSE2 150040Z 19007KT 37/13 A2992 RMK A01 T03670134  RH  025%=      5-min Rain = 0
KSE2 150041Z 19007KT 37/13 A2992 RMK A01 T03670134  RH  025%=      5-min Rain = 0
KSE2 150042Z 18007KT 37/13 A2992 RMK A01 T03670134  RH  025%=      5-min Rain = 0
KSE2 150043Z 17005KT 37/13 A2993 RMK A01 T03660134  RH  025%=      5-min Rain = 0
KSE2 150044Z 17006KT 37/13 A2993 RMK A01 T03660134  RH  025%=      5-min Rain = 0
KSE2 150045Z 16006KT 37/13 A2993 RMK A01 T03660134  RH  025%=      5-min Rain = 0
KSE2 150046Z 17011KT 37/13 A2993 RMK A01 T03650133  RH  025%=      5-min Rain = 0
KSE2 150047Z 15011KT 37/13 A2992 RMK A01 T03650132  RH  025%=      5-min Rain = 0
KSE2 150048Z 17008KT 36/13 A2993 RMK A01 T03640132  RH  025%=      5-min Rain = 0
KSE2 150049Z 17009KT 36/13 A2993 RMK A01 T03640133  RH  025%=      5-min Rain = 0
KSE2 150050Z 16009KT 36/13 A2993 RMK A01 T03640133  RH  025%=      5-min Rain = 0
KSE2 150051Z 17010KT 36/13 A2993 RMK A01 T03630133  RH  025%=      5-min Rain = 0
KSE2 150052Z 16007KT 36/13 A2993 RMK A01 T03630132  RH  025%=      5-min Rain = 0
KSE2 150053Z 16008KT 36/13 A2993 RMK A01 T03620133  RH  025%=      5-min Rain = 0
KSE2 150054Z 16007KT 36/13 A2993 RMK A01 T03620132  RH  025%=      5-min Rain = 0
KSE2 150055Z 15006KT 36/13 A2993 RMK A01 T03610132  RH  025%=      5-min Rain = 0
KSE2 150056Z 17006KT 36/13 A2993 RMK A01 T03610133  RH  026%=      5-min Rain = 0
KSE2 150057Z 17007KT 36/13 A2993 RMK A01 T03600133  RH  026%=      5-min Rain = 0
KSE2 150058Z 18007KT 36/13 A2993 RMK A01 T03600134  RH  026%=      5-min Rain = 0
KSE2 150059Z 18009KT 36/13 A2993 RMK A01 T03600134  RH  026%=      5-min Rain = 0
KSE2 150100Z 18008KT 36/13 A2993 RMK A01 T03600134  RH  026%=      5-min Rain = 0
KSE2 150101Z 17008KT 36/13 A2993 RMK A01 T03590134  RH  026%=      5-min Rain = 0
KSE2 150102Z 18008KT 36/13 A2993 RMK A01 T03590134  RH  026%=      5-min Rain = 0
KSE2 150103Z 18008KT 36/13 A2993 RMK A01 T03580134  RH  026%=      5-min Rain = 0
KSE2 150104Z 18007KT 36/13 A2993 RMK A01 T03580134  RH  026%=      5-min Rain = 0
KSE2 150105Z 19007KT 36/13 A2993 RMK A01 T03570134  RH  026%=      5-min Rain = 0
KSE2 150106Z 18007KT 36/13 A2993 RMK A01 T03570134  RH  026%=      5-min Rain = 0
KSE2 150107Z 18007KT 36/13 A2993 RMK A01 T03560134  RH  026%=      5-min Rain = 0
KSE2 150108Z 18007KT 36/14 A2993 RMK A01 T03560135  RH  027%=      5-min Rain = 0
KSE2 150109Z 18009KT 36/13 A2993 RMK A01 T03550134  RH  027%=      5-min Rain = 0
KSE2 150110Z 19006KT 36/13 A2993 RMK A01 T03550134  RH  027%=      5-min Rain = 0
KSE2 150111Z 19009KT 36/14 A2993 RMK A01 T03550135  RH  027%=      5-min Rain = 0
KSE2 150112Z 19008KT 35/13 A2993 RMK A01 T03540134  RH  027%=      5-min Rain = 0
KSE2 150113Z 19007KT 35/14 A2993 RMK A01 T03540135  RH  027%=      5-min Rain = 0
KSE2 150114Z 19007KT 35/13 A2993 RMK A01 T03530134  RH  027%=      5-min Rain = 0
KSE2 150115Z 19008KT 35/13 A2993 RMK A01 T03530134  RH  027%=      5-min Rain = 0
KSE2 150116Z 18006KT 35/13 A2993 RMK A01 T03530134  RH  027%=      5-min Rain = 0
KSE2 150117Z 18007KT 35/13 A2993 RMK A01 T03520134  RH  027%=      5-min Rain = 0
KSE2 150118Z 18005KT 35/13 A2993 RMK A01 T03510134  RH  027%=      5-min Rain = 0
KSE2 150119Z 18005KT 35/13 A2993 RMK A01 T03500134  RH  027%=      5-min Rain = 0
KSE2 150120Z 18005KT 35/13 A2993 RMK A01 T03490134  RH  027%=      5-min Rain = 0
KSE2 150121Z 18005KT 35/13 A2993 RMK A01 T03490134  RH  027%=      5-min Rain = 0
KSE2 150122Z 17006KT 35/13 A2993 RMK A01 T03480134  RH  028%=      5-min Rain = 0
KSE2 150123Z 17006KT 35/13 A2993 RMK A01 T03480134  RH  028%=      5-min Rain = 0
KSE2 150124Z 17006KT 35/13 A2993 RMK A01 T03470134  RH  028%=      5-min Rain = 0
KSE2 150125Z 17005KT 35/13 A2993 RMK A01 T03470134  RH  028%=      5-min Rain = 0
KSE2 150126Z 17006KT 35/13 A2993 RMK A01 T03470134  RH  028%=      5-min Rain = 0
KSE2 150127Z 17005KT 35/13 A2994 RMK A01 T03460134  RH  028%=      5-min Rain = 0
KSE2 150128Z 17005KT 35/13 A2994 RMK A01 T03450134  RH  028%=      5-min Rain = 0
KSE2 150129Z 16005KT 34/13 A2994 RMK A01 T03440134  RH  028%=      5-min Rain = 0
KSE2 150130Z 17005KT 34/13 A2994 RMK A01 T03430134  RH  028%=      5-min Rain = 0
KSE2 150131Z 17005KT 34/13 A2994 RMK A01 T03430134  RH  028%=      5-min Rain = 0
KSE2 150132Z 17006KT 34/13 A2994 RMK A01 T03420134  RH  028%=      5-min Rain = 0
KSE2 150133Z 17006KT 34/13 A2994 RMK A01 T03420134  RH  029%=      5-min Rain = 0
KSE2 150134Z 17006KT 34/14 A2994 RMK A01 T03420135  RH  029%=      5-min Rain = 0
KSE2 150135Z 18006KT 34/14 A2994 RMK A01 T03420135  RH  029%=      5-min Rain = 0
KSE2 150136Z 17005KT 34/14 A2994 RMK A01 T03410135  RH  029%=      5-min Rain = 0
KSE2 150137Z 17006KT 34/14 A2994 RMK A01 T03410135  RH  029%=      5-min Rain = 0
KSE2 150138Z 17005KT 34/14 A2994 RMK A01 T03400136  RH  029%=      5-min Rain = 0
KSE2 150139Z 17005KT 34/14 A2994 RMK A01 T03400136  RH  029%=      5-min Rain = 0
KSE2 150140Z 17005KT 34/14 A2994 RMK A01 T03390136  RH  029%=      5-min Rain = 0
KSE2 150141Z 17006KT 34/14 A2994 RMK A01 T03390136  RH  029%=      5-min Rain = 0
KSE2 150142Z 16005KT 34/14 A2994 RMK A01 T03390137  RH  030%=      5-min Rain = 0
KSE2 150143Z 16006KT 34/14 A2994 RMK A01 T03390137  RH  030%=      5-min Rain = 0
KSE2 150144Z 16006KT 34/14 A2994 RMK A01 T03390137  RH  030%=      5-min Rain = 0
KSE2 150145Z 16006KT 34/14 A2994 RMK A01 T03380137  RH  030%=      5-min Rain = 0
KSE2 150146Z 16006KT 34/14 A2994 RMK A01 T03380138  RH  030%=      5-min Rain = 0
KSE2 150147Z 16006KT 34/14 A2994 RMK A01 T03380138  RH  030%=      5-min Rain = 0
KSE2 150148Z 16007KT 34/14 A2994 RMK A01 T03380138  RH  030%=      5-min Rain = 0
KSE2 150149Z 16007KT 34/14 A2994 RMK A01 T03370138  RH  030%=      5-min Rain = 0
KSE2 150150Z 17007KT 34/14 A2994 RMK A01 T03370138  RH  030%=      5-min Rain = 0
KSE2 150151Z 16007KT 34/14 A2994 RMK A01 T03370138  RH  030%=      5-min Rain = 0
KSE2 150152Z 16007KT 34/14 A2994 RMK A01 T03360138  RH  030%=      5-min Rain = 0
KSE2 150153Z 16007KT 34/14 A2994 RMK A01 T03360138  RH  030%=      5-min Rain = 0
KSE2 150154Z 16006KT 34/14 A2994 RMK A01 T03360138  RH  030%=      5-min Rain = 0
KSE2 150155Z 16006KT 34/14 A2994 RMK A01 T03360138  RH  030%=      5-min Rain = 0
KSE2 150156Z 16006KT 34/14 A2994 RMK A01 T03350137  RH  030%=      5-min Rain = 0
KSE2 150157Z 17006KT 33/14 A2994 RMK A01 T03340137  RH  030%=      5-min Rain = 0
KSE2 150158Z 17005KT 33/14 A2995 RMK A01 T03340137  RH  030%=      5-min Rain = 0
KSE2 150159Z 17005KT 33/14 A2995 RMK A01 T03330137  RH  031%=      5-min Rain = 0
KSE2 150200Z 17006KT 33/14 A2995 RMK A01 T03320137  RH  031%=      5-min Rain = 0
KSE2 150201Z 17006KT 33/14 A2995 RMK A01 T03320137  RH  031%=      5-min Rain = 0
KSE2 150202Z 18006KT 33/14 A2995 RMK A01 T03310137  RH  031%=      5-min Rain = 0
KSE2 150203Z 16007KT 33/14 A2995 RMK A01 T03310137  RH  031%=      5-min Rain = 0
KSE2 150204Z 17006KT 33/14 A2995 RMK A01 T03310137  RH  031%=      5-min Rain = 0
KSE2 150205Z 18007KT 33/14 A2995 RMK A01 T03310137  RH  031%=      5-min Rain = 0
KSE2 150206Z 17007KT 33/14 A2995 RMK A01 T03300136  RH  031%=      5-min Rain = 0
KSE2 150207Z 17006KT 33/14 A2995 RMK A01 T03310136  RH  031%=      5-min Rain = 0
KSE2 150208Z 18007KT 33/14 A2995 RMK A01 T03310136  RH  031%=      5-min Rain = 0
KSE2 150209Z 17007KT 33/14 A2995 RMK A01 T03310136  RH  031%=      5-min Rain = 0
KSE2 150210Z 17007KT 33/14 A2995 RMK A01 T03300135  RH  031%=      5-min Rain = 0
KSE2 150211Z 17006KT 33/14 A2995 RMK A01 T03300135  RH  031%=      5-min Rain = 0
KSE2 150212Z 17006KT 33/14 A2995 RMK A01 T03290135  RH  031%=      5-min Rain = 0
KSE2 150213Z 17005KT 33/14 A2995 RMK A01 T03290135  RH  031%=      5-min Rain = 0
KSE2 150214Z 17006KT 33/14 A2995 RMK A01 T03280135  RH  031%=      5-min Rain = 0
KSE2 150215Z 17005KT 33/14 A2995 RMK A01 T03280135  RH  031%=      5-min Rain = 0
KSE2 150216Z 17006KT 33/14 A2995 RMK A01 T03270135  RH  031%=      5-min Rain = 0
KSE2 150217Z 17005KT 33/14 A2995 RMK A01 T03270135  RH  031%=      5-min Rain = 0
KSE2 150218Z 16006KT 33/13 A2995 RMK A01 T03260134  RH  031%=      5-min Rain = 0
KSE2 150219Z 17006KT 33/13 A2995 RMK A01 T03260134  RH  031%=      5-min Rain = 0
KSE2 150220Z 17005KT 33/14 A2996 RMK A01 T03260135  RH  031%=      5-min Rain = 0
KSE2 150221Z 17006KT 33/13 A2996 RMK A01 T03250134  RH  031%=      5-min Rain = 0
KSE2 150222Z 17006KT 33/13 A2996 RMK A01 T03250134  RH  031%=      5-min Rain = 0
KSE2 150223Z 17006KT 33/13 A2996 RMK A01 T03250134  RH  031%=      5-min Rain = 0
KSE2 150224Z 17006KT 33/13 A2996 RMK A01 T03250134  RH  031%=      5-min Rain = 0
KSE2 150225Z 17006KT 33/13 A2996 RMK A01 T03250134  RH  031%=      5-min Rain = 0
KSE2 150226Z 16005KT 33/13 A2996 RMK A01 T03250134  RH  031%=      5-min Rain = 0
KSE2 150227Z 17007KT 33/13 A2996 RMK A01 T03250134  RH  031%=      5-min Rain = 0
KSE2 150228Z 17006KT 33/13 A2996 RMK A01 T03250134  RH  031%=      5-min Rain = 0
KSE2 150229Z 16007KT 32/13 A2996 RMK A01 T03240134  RH  031%=      5-min Rain = 0
KSE2 150230Z 17007KT 32/13 A2996 RMK A01 T03240133  RH  031%=      5-min Rain = 0
KSE2 150231Z 17007KT 32/13 A2996 RMK A01 T03240134  RH  031%=      5-min Rain = 0
KSE2 150232Z 17006KT 32/13 A2996 RMK A01 T03240134  RH  031%=      5-min Rain = 0
KSE2 150233Z 16006KT 32/13 A2996 RMK A01 T03240133  RH  031%=      5-min Rain = 0
KSE2 150234Z 17006KT 32/13 A2996 RMK A01 T03240134  RH  032%=      5-min Rain = 0
KSE2 150235Z 17006KT 32/13 A2996 RMK A01 T03230133  RH  032%=      5-min Rain = 0
KSE2 150236Z 17007KT 32/13 A2996 RMK A01 T03230133  RH  032%=      5-min Rain = 0
KSE2 150237Z 17006KT 32/13 A2996 RMK A01 T03230133  RH  032%=      5-min Rain = 0
KSE2 150238Z 17006KT 32/13 A2996 RMK A01 T03220133  RH  032%=      5-min Rain = 0
KSE2 150239Z 17005KT 32/13 A2996 RMK A01 T03220133  RH  032%=      5-min Rain = 0
KSE2 150240Z 16006KT 32/13 A2996 RMK A01 T03210133  RH  032%=      5-min Rain = 0
KSE2 150241Z 17006KT 32/13 A2996 RMK A01 T03200133  RH  032%=      5-min Rain = 0
KSE2 150242Z 17007KT 32/13 A2996 RMK A01 T03200133  RH  032%=      5-min Rain = 0
KSE2 150243Z 17007KT 32/13 A2996 RMK A01 T03200133  RH  032%=      5-min Rain = 0
KSE2 150244Z 17007KT 32/13 A2996 RMK A01 T03200133  RH  032%=      5-min Rain = 0
KSE2 150245Z 17006KT 32/13 A2996 RMK A01 T03200133  RH  032%=      5-min Rain = 0
KSE2 150246Z 17007KT 32/13 A2996 RMK A01 T03190133  RH  032%=      5-min Rain = 0
KSE2 150247Z 17006KT 32/13 A2996 RMK A01 T03190133  RH  032%=      5-min Rain = 0
KSE2 150248Z 17007KT 32/13 A2996 RMK A01 T03190133  RH  032%=      5-min Rain = 0
KSE2 150249Z 17007KT 32/13 A2996 RMK A01 T03180132  RH  032%=      5-min Rain = 0
KSE2 150250Z 17008KT 32/13 A2996 RMK A01 T03180132  RH  032%=      5-min Rain = 0
KSE2 150251Z 17005KT 32/13 A2996 RMK A01 T03180132  RH  032%=      5-min Rain = 0
KSE2 150252Z 17007KT 32/13 A2996 RMK A01 T03180133  RH  032%=      5-min Rain = 0
KSE2 150253Z 17007KT 32/13 A2996 RMK A01 T03180133  RH  032%=      5-min Rain = 0
KSE2 150254Z 17008KT 32/13 A2996 RMK A01 T03180133  RH  032%=      5-min Rain = 0
KSE2 150255Z 18007KT 32/13 A2996 RMK A01 T03170132  RH  032%=      5-min Rain = 0
KSE2 150256Z 17007KT 32/13 A2996 RMK A01 T03170132  RH  032%=      5-min Rain = 0
KSE2 150257Z 17007KT 32/13 A2997 RMK A01 T03170132  RH  033%=      5-min Rain = 0
KSE2 150258Z 17006KT 32/13 A2997 RMK A01 T03170132  RH  033%=      5-min Rain = 0
KSE2 150259Z 17007KT 32/13 A2997 RMK A01 T03160132  RH  033%=      5-min Rain = 0
KSE2 150300Z 17007KT 32/13 A2997 RMK A01 T03160133  RH  033%=      5-min Rain = 0
KSE2 150301Z 17006KT 32/13 A2997 RMK A01 T03160132  RH  033%=      5-min Rain = 0
KSE2 150302Z 17007KT 32/13 A2997 RMK A01 T03150132  RH  033%=      5-min Rain = 0
KSE2 150303Z 17007KT 32/13 A2997 RMK A01 T03150132  RH  033%=      5-min Rain = 0
KSE2 150304Z 17005KT 31/13 A2997 RMK A01 T03140132  RH  033%=      5-min Rain = 0
KSE2 150305Z 17007KT 31/13 A2997 RMK A01 T03140132  RH  033%=      5-min Rain = 0
KSE2 150306Z 18007KT 31/13 A2997 RMK A01 T03140132  RH  033%=      5-min Rain = 0
KSE2 150307Z 17007KT 31/13 A2997 RMK A01 T03140132  RH  033%=      5-min Rain = 0
KSE2 150308Z 18007KT 31/13 A2997 RMK A01 T03130132  RH  033%=      5-min Rain = 0
KSE2 150309Z 17007KT 31/13 A2997 RMK A01 T03130132  RH  033%=      5-min Rain = 0
KSE2 150310Z 18006KT 31/13 A2997 RMK A01 T03130132  RH  033%=      5-min Rain = 0
KSE2 150311Z 18006KT 31/13 A2997 RMK A01 T03120132  RH  033%=      5-min Rain = 0
KSE2 150312Z 18007KT 31/13 A2997 RMK A01 T03110132  RH  033%=      5-min Rain = 0
KSE2 150313Z 18007KT 31/13 A2997 RMK A01 T03110132  RH  034%=      5-min Rain = 0
KSE2 150314Z 18006KT 31/13 A2997 RMK A01 T03110132  RH  034%=      5-min Rain = 0
KSE2 150315Z 18007KT 31/13 A2997 RMK A01 T03110132  RH  034%=      5-min Rain = 0
KSE2 150316Z 18006KT 31/13 A2997 RMK A01 T03100132  RH  034%=      5-min Rain = 0
KSE2 150317Z 18007KT 31/13 A2997 RMK A01 T03090132  RH  034%=      5-min Rain = 0
KSE2 150318Z 18008KT 31/13 A2997 RMK A01 T03090132  RH  034%=      5-min Rain = 0
KSE2 150319Z 18006KT 31/13 A2997 RMK A01 T03090132  RH  034%=      5-min Rain = 0
KSE2 150320Z 18006KT 31/13 A2997 RMK A01 T03080132  RH  034%=      5-min Rain = 0
KSE2 150321Z 17006KT 31/13 A2997 RMK A01 T03080132  RH  034%=      5-min Rain = 0
KSE2 150322Z 18007KT 31/13 A2997 RMK A01 T03080132  RH  034%=      5-min Rain = 0
KSE2 150323Z 18007KT 31/13 A2997 RMK A01 T03080132  RH  034%=      5-min Rain = 0
KSE2 150324Z 18006KT 31/13 A2997 RMK A01 T03080132  RH  034%=      5-min Rain = 0
KSE2 150325Z 17007KT 31/13 A2997 RMK A01 T03080132  RH  034%=      5-min Rain = 0
KSE2 150326Z 17007KT 31/13 A2997 RMK A01 T03080132  RH  034%=      5-min Rain = 0
KSE2 150327Z 18007KT 31/13 A2997 RMK A01 T03080132  RH  034%=      5-min Rain = 0
KSE2 150328Z 17007KT 31/13 A2997 RMK A01 T03070132  RH  034%=      5-min Rain = 0
KSE2 150329Z 17007KT 31/13 A2997 RMK A01 T03070132  RH  034%=      5-min Rain = 0
KSE2 150330Z 17007KT 31/13 A2997 RMK A01 T03070131  RH  034%=      5-min Rain = 0
KSE2 150331Z 17008KT 31/13 A2997 RMK A01 T03070132  RH  034%=      5-min Rain = 0
KSE2 150332Z 17007KT 31/13 A2997 RMK A01 T03070132  RH  034%=      5-min Rain = 0
KSE2 150333Z 18008KT 31/13 A2997 RMK A01 T03070132  RH  034%=      5-min Rain = 0
KSE2 150334Z 17006KT 31/13 A2997 RMK A01 T03070132  RH  034%=      5-min Rain = 0
KSE2 150335Z 17007KT 31/13 A2997 RMK A01 T03070132  RH  034%=      5-min Rain = 0
KSE2 150336Z 18008KT 31/13 A2997 RMK A01 T03060132  RH  034%=      5-min Rain = 0
KSE2 150337Z 18008KT 31/13 A2997 RMK A01 T03060132  RH  034%=      5-min Rain = 0
KSE2 150338Z 17007KT 31/13 A2997 RMK A01 T03060132  RH  034%=      5-min Rain = 0
KSE2 150339Z 17007KT 31/13 A2997 RMK A01 T03060132  RH  034%=      5-min Rain = 0
KSE2 150340Z 17008KT 31/13 A2997 RMK A01 T03050131  RH  035%=      5-min Rain = 0
KSE2 150341Z 18007KT 31/13 A2997 RMK A01 T03050132  RH  035%=      5-min Rain = 0
KSE2 150342Z 18007KT 31/13 A2997 RMK A01 T03050132  RH  035%=      5-min Rain = 0
KSE2 150343Z 18008KT 31/13 A2997 RMK A01 T03050132  RH  035%=      5-min Rain = 0
KSE2 150344Z 18006KT 31/13 A2997 RMK A01 T03050132  RH  035%=      5-min Rain = 0
KSE2 150345Z 18008KT 30/13 A2997 RMK A01 T03040131  RH  035%=      5-min Rain = 0
KSE2 150346Z 18007KT 30/13 A2998 RMK A01 T03040131  RH  035%=      5-min Rain = 0
KSE2 150347Z 18007KT 30/13 A2998 RMK A01 T03040131  RH  035%=      5-min Rain = 0
KSE2 150348Z 17006KT 30/13 A2998 RMK A01 T03040132  RH  035%=      5-min Rain = 0
KSE2 150349Z 17006KT 30/13 A2998 RMK A01 T03040132  RH  035%=      5-min Rain = 0
KSE2 150350Z 18007KT 30/13 A2998 RMK A01 T03030131  RH  035%=      5-min Rain = 0
KSE2 150351Z 17007KT 30/13 A2998 RMK A01 T03030132  RH  035%=      5-min Rain = 0
KSE2 150352Z 18008KT 30/13 A2998 RMK A01 T03030132  RH  035%=      5-min Rain = 0
KSE2 150353Z 17006KT 30/13 A2998 RMK A01 T03030132  RH  035%=      5-min Rain = 0
KSE2 150354Z 17007KT 30/13 A2998 RMK A01 T03030132  RH  035%=      5-min Rain = 0
KSE2 150355Z 18008KT 30/13 A2998 RMK A01 T03030132  RH  035%=      5-min Rain = 0
KSE2 150356Z 18007KT 30/13 A2998 RMK A01 T03030132  RH  035%=      5-min Rain = 0
KSE2 150357Z 18007KT 30/13 A2998 RMK A01 T03030133  RH  035%=      5-min Rain = 0
KSE2 150358Z 18008KT 30/13 A2998 RMK A01 T03030132  RH  035%=      5-min Rain = 0
KSE2 150359Z 18008G14KT 30/13 A2998 RMK A01 T03030132  RH  035%=      5-min Rain = 0
KSE2 150400Z 17008KT 30/13 A2998 RMK A01 T03030133  RH  035%=      5-min Rain = 0
KSE2 150401Z 17009KT 30/13 A2998 RMK A01 T03030133  RH  035%=      5-min Rain = 0
KSE2 150402Z 18009KT 30/13 A2998 RMK A01 T03030133  RH  035%=      5-min Rain = 0
KSE2 150403Z 17008KT 30/13 A2998 RMK A01 T03030133  RH  035%=      5-min Rain = 0
KSE2 150404Z 18008KT 30/13 A2998 RMK A01 T03030133  RH  035%=      5-min Rain = 0
KSE2 150405Z 18008KT 30/13 A2998 RMK A01 T03030133  RH  035%=      5-min Rain = 0
KSE2 150406Z 17008KT 30/13 A2998 RMK A01 T03040133  RH  035%=      5-min Rain = 0
KSE2 150407Z 17007KT 30/13 A2998 RMK A01 T03040134  RH  035%=      5-min Rain = 0
KSE2 150408Z 18006KT 30/13 A2998 RMK A01 T03030133  RH  035%=      5-min Rain = 0
KSE2 150409Z 17007KT 30/13 A2998 RMK A01 T03020133  RH  036%=      5-min Rain = 0
KSE2 150410Z 17007KT 30/13 A2998 RMK A01 T03020133  RH  036%=      5-min Rain = 0
KSE2 150411Z 18008KT 30/13 A2998 RMK A01 T03020133  RH  036%=      5-min Rain = 0
KSE2 150412Z 17008KT 30/13 A2998 RMK A01 T03020133  RH  036%=      5-min Rain = 0
KSE2 150413Z 17006KT 30/13 A2998 RMK A01 T03020133  RH  036%=      5-min Rain = 0
KSE2 150414Z 18007KT 30/13 A2998 RMK A01 T03010134  RH  036%=      5-min Rain = 0
KSE2 150415Z 17007KT 30/13 A2998 RMK A01 T03010133  RH  036%=      5-min Rain = 0
KSE2 150416Z 17007KT 30/13 A2998 RMK A01 T03010133  RH  036%=      5-min Rain = 0
KSE2 150417Z 17008KT 30/13 A2998 RMK A01 T03010134  RH  036%=      5-min Rain = 0
KSE2 150418Z 17008KT 30/13 A2998 RMK A01 T03000133  RH  036%=      5-min Rain = 0
KSE2 150419Z 17007KT 30/13 A2998 RMK A01 T03000134  RH  036%=      5-min Rain = 0
KSE2 150420Z 18009KT 30/13 A2998 RMK A01 T03010134  RH  036%=      5-min Rain = 0
KSE2 150421Z 17007KT 30/13 A2998 RMK A01 T03010134  RH  036%=      5-min Rain = 0
KSE2 150422Z 17008KT 30/13 A2998 RMK A01 T03010133  RH  036%=      5-min Rain = 0
KSE2 150423Z 19008KT 30/13 A2998 RMK A01 T03010134  RH  036%=      5-min Rain = 0
KSE2 150424Z 17008KT 30/13 A2998 RMK A01 T03010134  RH  036%=      5-min Rain = 0
KSE2 150425Z 18008KT 30/13 A2998 RMK A01 T03010134  RH  036%=      5-min Rain = 0
KSE2 150426Z 18008KT 30/13 A2998 RMK A01 T03010134  RH  036%=      5-min Rain = 0
KSE2 150427Z 18007KT 30/13 A2998 RMK A01 T03010134  RH  036%=      5-min Rain = 0
KSE2 150428Z 18007KT 30/13 A2998 RMK A01 T03000134  RH  036%=      5-min Rain = 0
KSE2 150429Z 17007KT 30/13 A2998 RMK A01 T03000134  RH  036%=      5-min Rain = 0
KSE2 150430Z 18008G13KT 30/13 A2998 RMK A01 T03000134  RH  036%=      5-min Rain = 0
KSE2 150431Z 18007KT 30/13 A2998 RMK A01 T03000134  RH  036%=      5-min Rain = 0
KSE2 150432Z 18007KT 30/13 A2998 RMK A01 T03000134  RH  036%=      5-min Rain = 0
KSE2 150433Z 18009G14KT 30/13 A2998 RMK A01 T03000134  RH  036%=      5-min Rain = 0
KSE2 150434Z 18008KT 30/13 A2998 RMK A01 T03000134  RH  036%=      5-min Rain = 0
KSE2 150435Z 18010KT 30/13 A2998 RMK A01 T03000134  RH  036%=      5-min Rain = 0
KSE2 150436Z 17008KT 30/13 A2998 RMK A01 T03000134  RH  036%=      5-min Rain = 0
KSE2 150437Z 18006KT 30/13 A2998 RMK A01 T03000134  RH  036%=      5-min Rain = 0
KSE2 150438Z 18008KT 30/13 A2997 RMK A01 T03000134  RH  036%=      5-min Rain = 0
KSE2 150439Z 18008KT 30/13 A2997 RMK A01 T02990134  RH  036%=      5-min Rain = 0
KSE2 150440Z 18009KT 30/13 A2997 RMK A01 T02990134  RH  036%=      5-min Rain = 0
KSE2 150441Z 19008KT 30/13 A2998 RMK A01 T02990134  RH  036%=      5-min Rain = 0
KSE2 150442Z 18007KT 30/13 A2997 RMK A01 T02990134  RH  036%=      5-min Rain = 0
KSE2 150443Z 18008KT 30/13 A2997 RMK A01 T02990134  RH  036%=      5-min Rain = 0
KSE2 150444Z 18008KT 30/13 A2997 RMK A01 T02980133  RH  036%=      5-min Rain = 0
KSE2 150445Z 18007KT 30/13 A2997 RMK A01 T02990134  RH  036%=      5-min Rain = 0
KSE2 150446Z 18009KT 30/13 A2997 RMK A01 T02980133  RH  036%=      5-min Rain = 0
KSE2 150447Z 18008KT 30/13 A2997 RMK A01 T02980133  RH  036%=      5-min Rain = 0
KSE2 150448Z 18008KT 30/13 A2997 RMK A01 T02980133  RH  036%=      5-min Rain = 0
KSE2 150449Z 18009G14KT 30/13 A2997 RMK A01 T02980133  RH  036%=      5-min Rain = 0
KSE2 150450Z 18007KT 30/13 A2997 RMK A01 T02990133  RH  036%=      5-min Rain = 0
KSE2 150451Z 17007G12KT 30/13 A2997 RMK A01 T02990134  RH  036%=      5-min Rain = 0
KSE2 150452Z 18010KT 30/13 A2997 RMK A01 T02990133  RH  036%=      5-min Rain = 0
KSE2 150453Z 18008KT 30/13 A2997 RMK A01 T03000133  RH  036%=      5-min Rain = 0
KSE2 150454Z 18009KT 30/13 A2997 RMK A01 T03000133  RH  036%=      5-min Rain = 0
KSE2 150455Z 17007KT 30/13 A2997 RMK A01 T03000133  RH  036%=      5-min Rain = 0
KSE2 150456Z 18008KT 30/13 A2997 RMK A01 T02990133  RH  036%=      5-min Rain = 0
KSE2 150457Z 18009KT 30/13 A2997 RMK A01 T02990133  RH  036%=      5-min Rain = 0
KSE2 150458Z 18009KT 30/13 A2997 RMK A01 T02990133  RH  036%=      5-min Rain = 0
KSE2 150459Z 18008KT 30/13 A2997 RMK A01 T02990133  RH  036%=      5-min Rain = 0

Page generated in 0.1185 seconds.